<?xml version="1.0" encoding="UTF-8" standalone="no" ?>
<gpx xmlns="http://www.topografix.com/GPX/1/1" xmlns:xsi="http://www.w3.org/2001/XMLSchema-instance" xsi:schemaLocation="http://www.topografix.com/GPX/1/1 http://www.topografix.com/GPX/1/1/gpx.xsd" version="1.1" creator="VisuGPX - https://www.visugpx.com">
  <metadata>
    <name>Footing rythme 100 km</name>
    <desc><![CDATA[Footing rythme 100 km]]></desc>
  </metadata>
  <trk>
    <name><![CDATA[AVR-22-16 11:02:13 AM]]></name>
    <trkseg>
      <trkpt lat="47.05355" lon="5.42298">
        <ele>208.74</ele>
        <time>2016-04-22T06:58:56Z</time>
      </trkpt>
      <trkpt lat="47.05354" lon="5.423">
        <ele>206.82</ele>
        <time>2016-04-22T06:59:01Z</time>
      </trkpt>
      <trkpt lat="47.05351" lon="5.42301">
        <ele>205.38</ele>
        <time>2016-04-22T06:59:07Z</time>
      </trkpt>
      <trkpt lat="47.05343" lon="5.42299">
        <ele>203.94</ele>
        <time>2016-04-22T06:59:12Z</time>
      </trkpt>
      <trkpt lat="47.05332" lon="5.42289">
        <ele>202.98</ele>
        <time>2016-04-22T06:59:20Z</time>
      </trkpt>
      <trkpt lat="47.0532" lon="5.42277">
        <ele>199.61</ele>
        <time>2016-04-22T06:59:27Z</time>
      </trkpt>
      <trkpt lat="47.05311" lon="5.42261">
        <ele>197.21</ele>
        <time>2016-04-22T06:59:34Z</time>
      </trkpt>
      <trkpt lat="47.05308" lon="5.42245">
        <ele>194.8</ele>
        <time>2016-04-22T06:59:40Z</time>
      </trkpt>
      <trkpt lat="47.0531" lon="5.4222">
        <ele>192.4</ele>
        <time>2016-04-22T06:59:47Z</time>
      </trkpt>
      <trkpt lat="47.05312" lon="5.42189">
        <ele>190.48</ele>
        <time>2016-04-22T06:59:56Z</time>
      </trkpt>
      <trkpt lat="47.05312" lon="5.42173">
        <ele>190</ele>
        <time>2016-04-22T07:00:01Z</time>
      </trkpt>
      <trkpt lat="47.05299" lon="5.42165">
        <ele>190</ele>
        <time>2016-04-22T07:00:06Z</time>
      </trkpt>
      <trkpt lat="47.05283" lon="5.42161">
        <ele>190.96</ele>
        <time>2016-04-22T07:00:12Z</time>
      </trkpt>
      <trkpt lat="47.05273" lon="5.42159">
        <ele>192.88</ele>
        <time>2016-04-22T07:00:16Z</time>
      </trkpt>
      <trkpt lat="47.05254" lon="5.42157">
        <ele>198.17</ele>
        <time>2016-04-22T07:00:24Z</time>
      </trkpt>
      <trkpt lat="47.05248" lon="5.42153">
        <ele>198.65</ele>
        <time>2016-04-22T07:00:26Z</time>
      </trkpt>
      <trkpt lat="47.05248" lon="5.42136">
        <ele>198.17</ele>
        <time>2016-04-22T07:00:32Z</time>
      </trkpt>
      <trkpt lat="47.05248" lon="5.42115">
        <ele>197.21</ele>
        <time>2016-04-22T07:00:39Z</time>
      </trkpt>
      <trkpt lat="47.0525" lon="5.42099">
        <ele>195.77</ele>
        <time>2016-04-22T07:00:44Z</time>
      </trkpt>
      <trkpt lat="47.05256" lon="5.42076">
        <ele>195.77</ele>
        <time>2016-04-22T07:00:51Z</time>
      </trkpt>
      <trkpt lat="47.05259" lon="5.4205">
        <ele>196.25</ele>
        <time>2016-04-22T07:00:59Z</time>
      </trkpt>
      <trkpt lat="47.05259" lon="5.4203">
        <ele>196.73</ele>
        <time>2016-04-22T07:01:05Z</time>
      </trkpt>
      <trkpt lat="47.05259" lon="5.42023">
        <ele>196.25</ele>
        <time>2016-04-22T07:01:07Z</time>
      </trkpt>
      <trkpt lat="47.05258" lon="5.41992">
        <ele>196.73</ele>
        <time>2016-04-22T07:01:16Z</time>
      </trkpt>
      <trkpt lat="47.05262" lon="5.41967">
        <ele>197.21</ele>
        <time>2016-04-22T07:01:23Z</time>
      </trkpt>
      <trkpt lat="47.05266" lon="5.4194">
        <ele>197.69</ele>
        <time>2016-04-22T07:01:30Z</time>
      </trkpt>
      <trkpt lat="47.05267" lon="5.41918">
        <ele>197.69</ele>
        <time>2016-04-22T07:01:37Z</time>
      </trkpt>
      <trkpt lat="47.05268" lon="5.4189">
        <ele>197.69</ele>
        <time>2016-04-22T07:01:45Z</time>
      </trkpt>
      <trkpt lat="47.05265" lon="5.41866">
        <ele>196.73</ele>
        <time>2016-04-22T07:01:52Z</time>
      </trkpt>
      <trkpt lat="47.05261" lon="5.41849">
        <ele>195.28</ele>
        <time>2016-04-22T07:01:57Z</time>
      </trkpt>
      <trkpt lat="47.05248" lon="5.41836">
        <ele>195.77</ele>
        <time>2016-04-22T07:02:03Z</time>
      </trkpt>
      <trkpt lat="47.05241" lon="5.41831">
        <ele>195.77</ele>
        <time>2016-04-22T07:02:06Z</time>
      </trkpt>
      <trkpt lat="47.05218" lon="5.41812">
        <ele>195.77</ele>
        <time>2016-04-22T07:02:16Z</time>
      </trkpt>
      <trkpt lat="47.05212" lon="5.41792">
        <ele>195.77</ele>
        <time>2016-04-22T07:02:22Z</time>
      </trkpt>
      <trkpt lat="47.05212" lon="5.41765">
        <ele>193.36</ele>
        <time>2016-04-22T07:02:29Z</time>
      </trkpt>
      <trkpt lat="47.05211" lon="5.41745">
        <ele>192.88</ele>
        <time>2016-04-22T07:02:35Z</time>
      </trkpt>
      <trkpt lat="47.05213" lon="5.41721">
        <ele>193.36</ele>
        <time>2016-04-22T07:02:42Z</time>
      </trkpt>
      <trkpt lat="47.05213" lon="5.41697">
        <ele>193.84</ele>
        <time>2016-04-22T07:02:49Z</time>
      </trkpt>
      <trkpt lat="47.05211" lon="5.41687">
        <ele>193.36</ele>
        <time>2016-04-22T07:02:52Z</time>
      </trkpt>
      <trkpt lat="47.05214" lon="5.41658">
        <ele>192.88</ele>
        <time>2016-04-22T07:03:00Z</time>
      </trkpt>
      <trkpt lat="47.05216" lon="5.41632">
        <ele>191.92</ele>
        <time>2016-04-22T07:03:07Z</time>
      </trkpt>
      <trkpt lat="47.05215" lon="5.41611">
        <ele>191.92</ele>
        <time>2016-04-22T07:03:13Z</time>
      </trkpt>
      <trkpt lat="47.05215" lon="5.41604">
        <ele>191.92</ele>
        <time>2016-04-22T07:03:15Z</time>
      </trkpt>
      <trkpt lat="47.05215" lon="5.41581">
        <ele>191.92</ele>
        <time>2016-04-22T07:03:21Z</time>
      </trkpt>
      <trkpt lat="47.05215" lon="5.41578">
        <ele>191.92</ele>
        <time>2016-04-22T07:03:22Z</time>
      </trkpt>
      <trkpt lat="47.05213" lon="5.41556">
        <ele>191.44</ele>
        <time>2016-04-22T07:03:28Z</time>
      </trkpt>
      <trkpt lat="47.05214" lon="5.41549">
        <ele>191.44</ele>
        <time>2016-04-22T07:03:30Z</time>
      </trkpt>
      <trkpt lat="47.05214" lon="5.4153">
        <ele>190.96</ele>
        <time>2016-04-22T07:03:35Z</time>
      </trkpt>
      <trkpt lat="47.05214" lon="5.41527">
        <ele>190.96</ele>
        <time>2016-04-22T07:03:36Z</time>
      </trkpt>
      <trkpt lat="47.05213" lon="5.41512">
        <ele>190.48</ele>
        <time>2016-04-22T07:03:40Z</time>
      </trkpt>
      <trkpt lat="47.05216" lon="5.4149">
        <ele>190</ele>
        <time>2016-04-22T07:03:46Z</time>
      </trkpt>
      <trkpt lat="47.05214" lon="5.41475">
        <ele>190</ele>
        <time>2016-04-22T07:03:50Z</time>
      </trkpt>
      <trkpt lat="47.05211" lon="5.41446">
        <ele>190.96</ele>
        <time>2016-04-22T07:03:58Z</time>
      </trkpt>
      <trkpt lat="47.05213" lon="5.41426">
        <ele>191.44</ele>
        <time>2016-04-22T07:04:03Z</time>
      </trkpt>
      <trkpt lat="47.05214" lon="5.41423">
        <ele>191.44</ele>
        <time>2016-04-22T07:04:04Z</time>
      </trkpt>
      <trkpt lat="47.05211" lon="5.41407">
        <ele>191.92</ele>
        <time>2016-04-22T07:04:08Z</time>
      </trkpt>
      <trkpt lat="47.05204" lon="5.41398">
        <ele>192.88</ele>
        <time>2016-04-22T07:04:11Z</time>
      </trkpt>
      <trkpt lat="47.0518" lon="5.41392">
        <ele>190</ele>
        <time>2016-04-22T07:04:19Z</time>
      </trkpt>
      <trkpt lat="47.05162" lon="5.41392">
        <ele>189.52</ele>
        <time>2016-04-22T07:04:26Z</time>
      </trkpt>
      <trkpt lat="47.0515" lon="5.41392">
        <ele>189.04</ele>
        <time>2016-04-22T07:04:31Z</time>
      </trkpt>
      <trkpt lat="47.05136" lon="5.41393">
        <ele>190</ele>
        <time>2016-04-22T07:04:36Z</time>
      </trkpt>
      <trkpt lat="47.05122" lon="5.41395">
        <ele>190.96</ele>
        <time>2016-04-22T07:04:42Z</time>
      </trkpt>
      <trkpt lat="47.05107" lon="5.41398">
        <ele>191.92</ele>
        <time>2016-04-22T07:04:48Z</time>
      </trkpt>
      <trkpt lat="47.05093" lon="5.41394">
        <ele>194.8</ele>
        <time>2016-04-22T07:04:53Z</time>
      </trkpt>
      <trkpt lat="47.05082" lon="5.4139">
        <ele>197.69</ele>
        <time>2016-04-22T07:04:57Z</time>
      </trkpt>
      <trkpt lat="47.05068" lon="5.41387">
        <ele>200.57</ele>
        <time>2016-04-22T07:05:03Z</time>
      </trkpt>
      <trkpt lat="47.05054" lon="5.41385">
        <ele>202.98</ele>
        <time>2016-04-22T07:05:08Z</time>
      </trkpt>
      <trkpt lat="47.05035" lon="5.41381">
        <ele>202.98</ele>
        <time>2016-04-22T07:05:15Z</time>
      </trkpt>
      <trkpt lat="47.05016" lon="5.41379">
        <ele>202.98</ele>
        <time>2016-04-22T07:05:22Z</time>
      </trkpt>
      <trkpt lat="47.05" lon="5.41378">
        <ele>204.9</ele>
        <time>2016-04-22T07:05:28Z</time>
      </trkpt>
      <trkpt lat="47.04981" lon="5.41378">
        <ele>207.78</ele>
        <time>2016-04-22T07:05:35Z</time>
      </trkpt>
      <trkpt lat="47.04966" lon="5.41379">
        <ele>208.26</ele>
        <time>2016-04-22T07:05:41Z</time>
      </trkpt>
      <trkpt lat="47.04951" lon="5.4138">
        <ele>208.74</ele>
        <time>2016-04-22T07:05:47Z</time>
      </trkpt>
      <trkpt lat="47.04939" lon="5.41378">
        <ele>209.7</ele>
        <time>2016-04-22T07:05:52Z</time>
      </trkpt>
      <trkpt lat="47.04931" lon="5.41376">
        <ele>210.19</ele>
        <time>2016-04-22T07:05:55Z</time>
      </trkpt>
      <trkpt lat="47.04915" lon="5.41378">
        <ele>210.19</ele>
        <time>2016-04-22T07:06:02Z</time>
      </trkpt>
      <trkpt lat="47.04902" lon="5.41378">
        <ele>209.7</ele>
        <time>2016-04-22T07:06:07Z</time>
      </trkpt>
      <trkpt lat="47.0489" lon="5.41375">
        <ele>209.22</ele>
        <time>2016-04-22T07:06:12Z</time>
      </trkpt>
      <trkpt lat="47.04878" lon="5.41378">
        <ele>209.22</ele>
        <time>2016-04-22T07:06:17Z</time>
      </trkpt>
      <trkpt lat="47.04868" lon="5.41387">
        <ele>210.19</ele>
        <time>2016-04-22T07:06:22Z</time>
      </trkpt>
      <trkpt lat="47.04854" lon="5.41397">
        <ele>210.67</ele>
        <time>2016-04-22T07:06:28Z</time>
      </trkpt>
      <trkpt lat="47.04842" lon="5.41391">
        <ele>211.15</ele>
        <time>2016-04-22T07:06:33Z</time>
      </trkpt>
      <trkpt lat="47.04833" lon="5.41379">
        <ele>211.63</ele>
        <time>2016-04-22T07:06:38Z</time>
      </trkpt>
      <trkpt lat="47.04818" lon="5.41371">
        <ele>211.15</ele>
        <time>2016-04-22T07:06:44Z</time>
      </trkpt>
      <trkpt lat="47.04802" lon="5.4137">
        <ele>211.15</ele>
        <time>2016-04-22T07:06:50Z</time>
      </trkpt>
      <trkpt lat="47.04788" lon="5.41369">
        <ele>209.22</ele>
        <time>2016-04-22T07:06:56Z</time>
      </trkpt>
      <trkpt lat="47.04776" lon="5.41366">
        <ele>206.34</ele>
        <time>2016-04-22T07:07:02Z</time>
      </trkpt>
      <trkpt lat="47.0477" lon="5.41347">
        <ele>204.42</ele>
        <time>2016-04-22T07:07:09Z</time>
      </trkpt>
      <trkpt lat="47.0477" lon="5.41326">
        <ele>204.42</ele>
        <time>2016-04-22T07:07:15Z</time>
      </trkpt>
      <trkpt lat="47.0477" lon="5.41323">
        <ele>204.42</ele>
        <time>2016-04-22T07:07:16Z</time>
      </trkpt>
      <trkpt lat="47.04778" lon="5.41299">
        <ele>203.46</ele>
        <time>2016-04-22T07:07:23Z</time>
      </trkpt>
      <trkpt lat="47.04781" lon="5.41273">
        <ele>202.01</ele>
        <time>2016-04-22T07:07:30Z</time>
      </trkpt>
      <trkpt lat="47.04785" lon="5.41241">
        <ele>199.61</ele>
        <time>2016-04-22T07:07:39Z</time>
      </trkpt>
      <trkpt lat="47.04787" lon="5.4122">
        <ele>199.13</ele>
        <time>2016-04-22T07:07:45Z</time>
      </trkpt>
      <trkpt lat="47.0479" lon="5.4119">
        <ele>198.65</ele>
        <time>2016-04-22T07:07:53Z</time>
      </trkpt>
      <trkpt lat="47.04791" lon="5.41161">
        <ele>199.13</ele>
        <time>2016-04-22T07:08:01Z</time>
      </trkpt>
      <trkpt lat="47.0479" lon="5.41136">
        <ele>198.65</ele>
        <time>2016-04-22T07:08:08Z</time>
      </trkpt>
      <trkpt lat="47.04789" lon="5.41111">
        <ele>198.65</ele>
        <time>2016-04-22T07:08:15Z</time>
      </trkpt>
      <trkpt lat="47.04788" lon="5.41089">
        <ele>199.13</ele>
        <time>2016-04-22T07:08:21Z</time>
      </trkpt>
      <trkpt lat="47.04782" lon="5.41063">
        <ele>199.61</ele>
        <time>2016-04-22T07:08:29Z</time>
      </trkpt>
      <trkpt lat="47.04783" lon="5.41039">
        <ele>200.09</ele>
        <time>2016-04-22T07:08:36Z</time>
      </trkpt>
      <trkpt lat="47.0478" lon="5.41011">
        <ele>201.05</ele>
        <time>2016-04-22T07:08:44Z</time>
      </trkpt>
      <trkpt lat="47.04778" lon="5.40988">
        <ele>202.49</ele>
        <time>2016-04-22T07:08:51Z</time>
      </trkpt>
      <trkpt lat="47.0478" lon="5.40972">
        <ele>202.98</ele>
        <time>2016-04-22T07:08:56Z</time>
      </trkpt>
      <trkpt lat="47.04766" lon="5.40968">
        <ele>203.46</ele>
        <time>2016-04-22T07:09:03Z</time>
      </trkpt>
      <trkpt lat="47.04764" lon="5.40966">
        <ele>203.46</ele>
        <time>2016-04-22T07:09:04Z</time>
      </trkpt>
      <trkpt lat="47.04746" lon="5.4095">
        <ele>203.94</ele>
        <time>2016-04-22T07:09:12Z</time>
      </trkpt>
      <trkpt lat="47.0473" lon="5.40931">
        <ele>204.9</ele>
        <time>2016-04-22T07:09:20Z</time>
      </trkpt>
      <trkpt lat="47.04716" lon="5.40909">
        <ele>204.42</ele>
        <time>2016-04-22T07:09:28Z</time>
      </trkpt>
      <trkpt lat="47.04715" lon="5.40907">
        <ele>204.42</ele>
        <time>2016-04-22T07:09:29Z</time>
      </trkpt>
      <trkpt lat="47.04692" lon="5.40892">
        <ele>201.05</ele>
        <time>2016-04-22T07:09:37Z</time>
      </trkpt>
      <trkpt lat="47.0467" lon="5.40891">
        <ele>203.46</ele>
        <time>2016-04-22T07:09:44Z</time>
      </trkpt>
      <trkpt lat="47.04658" lon="5.4089">
        <ele>204.9</ele>
        <time>2016-04-22T07:09:49Z</time>
      </trkpt>
      <trkpt lat="47.04645" lon="5.40885">
        <ele>206.34</ele>
        <time>2016-04-22T07:09:55Z</time>
      </trkpt>
      <trkpt lat="47.04636" lon="5.40883">
        <ele>206.34</ele>
        <time>2016-04-22T07:09:59Z</time>
      </trkpt>
      <trkpt lat="47.04614" lon="5.40876">
        <ele>206.34</ele>
        <time>2016-04-22T07:10:08Z</time>
      </trkpt>
      <trkpt lat="47.046" lon="5.40867">
        <ele>206.34</ele>
        <time>2016-04-22T07:10:14Z</time>
      </trkpt>
      <trkpt lat="47.04585" lon="5.40861">
        <ele>206.34</ele>
        <time>2016-04-22T07:10:19Z</time>
      </trkpt>
      <trkpt lat="47.04571" lon="5.40855">
        <ele>206.34</ele>
        <time>2016-04-22T07:10:24Z</time>
      </trkpt>
      <trkpt lat="47.04551" lon="5.40845">
        <ele>205.38</ele>
        <time>2016-04-22T07:10:30Z</time>
      </trkpt>
      <trkpt lat="47.04546" lon="5.40832">
        <ele>204.42</ele>
        <time>2016-04-22T07:10:35Z</time>
      </trkpt>
      <trkpt lat="47.04543" lon="5.40822">
        <ele>204.9</ele>
        <time>2016-04-22T07:10:38Z</time>
      </trkpt>
      <trkpt lat="47.04536" lon="5.40796">
        <ele>203.46</ele>
        <time>2016-04-22T07:10:46Z</time>
      </trkpt>
      <trkpt lat="47.04531" lon="5.40782">
        <ele>202.49</ele>
        <time>2016-04-22T07:10:50Z</time>
      </trkpt>
      <trkpt lat="47.04526" lon="5.40763">
        <ele>201.53</ele>
        <time>2016-04-22T07:10:56Z</time>
      </trkpt>
      <trkpt lat="47.04521" lon="5.4074">
        <ele>199.13</ele>
        <time>2016-04-22T07:11:03Z</time>
      </trkpt>
      <trkpt lat="47.04519" lon="5.40727">
        <ele>197.69</ele>
        <time>2016-04-22T07:11:07Z</time>
      </trkpt>
      <trkpt lat="47.0451" lon="5.40704">
        <ele>194.32</ele>
        <time>2016-04-22T07:11:14Z</time>
      </trkpt>
      <trkpt lat="47.045" lon="5.40679">
        <ele>194.32</ele>
        <time>2016-04-22T07:11:21Z</time>
      </trkpt>
      <trkpt lat="47.04489" lon="5.40654">
        <ele>193.36</ele>
        <time>2016-04-22T07:11:28Z</time>
      </trkpt>
      <trkpt lat="47.04483" lon="5.40629">
        <ele>192.88</ele>
        <time>2016-04-22T07:11:35Z</time>
      </trkpt>
      <trkpt lat="47.04476" lon="5.40608">
        <ele>192.88</ele>
        <time>2016-04-22T07:11:41Z</time>
      </trkpt>
      <trkpt lat="47.0447" lon="5.40586">
        <ele>193.84</ele>
        <time>2016-04-22T07:11:47Z</time>
      </trkpt>
      <trkpt lat="47.04467" lon="5.40575">
        <ele>194.32</ele>
        <time>2016-04-22T07:11:50Z</time>
      </trkpt>
      <trkpt lat="47.04461" lon="5.40559">
        <ele>195.77</ele>
        <time>2016-04-22T07:11:55Z</time>
      </trkpt>
      <trkpt lat="47.04454" lon="5.40535">
        <ele>195.77</ele>
        <time>2016-04-22T07:12:02Z</time>
      </trkpt>
      <trkpt lat="47.04448" lon="5.40511">
        <ele>195.28</ele>
        <time>2016-04-22T07:12:09Z</time>
      </trkpt>
      <trkpt lat="47.04441" lon="5.40491">
        <ele>195.28</ele>
        <time>2016-04-22T07:12:15Z</time>
      </trkpt>
      <trkpt lat="47.04435" lon="5.40472">
        <ele>194.32</ele>
        <time>2016-04-22T07:12:21Z</time>
      </trkpt>
      <trkpt lat="47.04428" lon="5.4045">
        <ele>193.36</ele>
        <time>2016-04-22T07:12:27Z</time>
      </trkpt>
      <trkpt lat="47.04421" lon="5.4043">
        <ele>192.88</ele>
        <time>2016-04-22T07:12:33Z</time>
      </trkpt>
      <trkpt lat="47.04419" lon="5.40427">
        <ele>192.88</ele>
        <time>2016-04-22T07:12:34Z</time>
      </trkpt>
      <trkpt lat="47.04402" lon="5.4042">
        <ele>192.4</ele>
        <time>2016-04-22T07:12:40Z</time>
      </trkpt>
      <trkpt lat="47.04387" lon="5.40415">
        <ele>192.4</ele>
        <time>2016-04-22T07:12:46Z</time>
      </trkpt>
      <trkpt lat="47.04371" lon="5.4041">
        <ele>192.88</ele>
        <time>2016-04-22T07:12:53Z</time>
      </trkpt>
      <trkpt lat="47.04368" lon="5.40394">
        <ele>193.36</ele>
        <time>2016-04-22T07:12:58Z</time>
      </trkpt>
      <trkpt lat="47.04369" lon="5.40385">
        <ele>193.36</ele>
        <time>2016-04-22T07:13:00Z</time>
      </trkpt>
      <trkpt lat="47.04372" lon="5.40357">
        <ele>193.36</ele>
        <time>2016-04-22T07:13:07Z</time>
      </trkpt>
      <trkpt lat="47.04374" lon="5.40334">
        <ele>192.88</ele>
        <time>2016-04-22T07:13:13Z</time>
      </trkpt>
      <trkpt lat="47.04376" lon="5.40316">
        <ele>193.36</ele>
        <time>2016-04-22T07:13:18Z</time>
      </trkpt>
      <trkpt lat="47.04377" lon="5.40301">
        <ele>192.88</ele>
        <time>2016-04-22T07:13:22Z</time>
      </trkpt>
      <trkpt lat="47.04382" lon="5.40274">
        <ele>192.88</ele>
        <time>2016-04-22T07:13:29Z</time>
      </trkpt>
      <trkpt lat="47.04385" lon="5.40248">
        <ele>191.92</ele>
        <time>2016-04-22T07:13:36Z</time>
      </trkpt>
      <trkpt lat="47.04382" lon="5.40221">
        <ele>191.44</ele>
        <time>2016-04-22T07:13:43Z</time>
      </trkpt>
      <trkpt lat="47.04368" lon="5.40206">
        <ele>190.48</ele>
        <time>2016-04-22T07:13:50Z</time>
      </trkpt>
      <trkpt lat="47.04354" lon="5.40199">
        <ele>190.48</ele>
        <time>2016-04-22T07:13:56Z</time>
      </trkpt>
      <trkpt lat="47.04341" lon="5.4019">
        <ele>190.48</ele>
        <time>2016-04-22T07:14:02Z</time>
      </trkpt>
      <trkpt lat="47.04325" lon="5.40177">
        <ele>190.96</ele>
        <time>2016-04-22T07:14:09Z</time>
      </trkpt>
      <trkpt lat="47.04316" lon="5.40166">
        <ele>190.48</ele>
        <time>2016-04-22T07:14:14Z</time>
      </trkpt>
      <trkpt lat="47.043" lon="5.40149">
        <ele>191.44</ele>
        <time>2016-04-22T07:14:21Z</time>
      </trkpt>
      <trkpt lat="47.04296" lon="5.40145">
        <ele>191.44</ele>
        <time>2016-04-22T07:14:23Z</time>
      </trkpt>
      <trkpt lat="47.04287" lon="5.40131">
        <ele>190.96</ele>
        <time>2016-04-22T07:14:29Z</time>
      </trkpt>
      <trkpt lat="47.04278" lon="5.40123">
        <ele>190.96</ele>
        <time>2016-04-22T07:14:32Z</time>
      </trkpt>
      <trkpt lat="47.04274" lon="5.40118">
        <ele>191.44</ele>
        <time>2016-04-22T07:14:34Z</time>
      </trkpt>
      <trkpt lat="47.04268" lon="5.40108">
        <ele>192.4</ele>
        <time>2016-04-22T07:14:38Z</time>
      </trkpt>
      <trkpt lat="47.04259" lon="5.40088">
        <ele>194.32</ele>
        <time>2016-04-22T07:14:45Z</time>
      </trkpt>
      <trkpt lat="47.04257" lon="5.40079">
        <ele>195.28</ele>
        <time>2016-04-22T07:14:48Z</time>
      </trkpt>
      <trkpt lat="47.04267" lon="5.40065">
        <ele>196.73</ele>
        <time>2016-04-22T07:14:55Z</time>
      </trkpt>
      <trkpt lat="47.04269" lon="5.40064">
        <ele>196.73</ele>
        <time>2016-04-22T07:14:56Z</time>
      </trkpt>
      <trkpt lat="47.04285" lon="5.40051">
        <ele>196.73</ele>
        <time>2016-04-22T07:15:04Z</time>
      </trkpt>
      <trkpt lat="47.04301" lon="5.4004">
        <ele>196.73</ele>
        <time>2016-04-22T07:15:11Z</time>
      </trkpt>
      <trkpt lat="47.04317" lon="5.4003">
        <ele>197.69</ele>
        <time>2016-04-22T07:15:18Z</time>
      </trkpt>
      <trkpt lat="47.0433" lon="5.40021">
        <ele>198.65</ele>
        <time>2016-04-22T07:15:24Z</time>
      </trkpt>
      <trkpt lat="47.04346" lon="5.40011">
        <ele>199.61</ele>
        <time>2016-04-22T07:15:31Z</time>
      </trkpt>
      <trkpt lat="47.04362" lon="5.40002">
        <ele>201.05</ele>
        <time>2016-04-22T07:15:38Z</time>
      </trkpt>
      <trkpt lat="47.04373" lon="5.39995">
        <ele>200.57</ele>
        <time>2016-04-22T07:15:44Z</time>
      </trkpt>
      <trkpt lat="47.04393" lon="5.39982">
        <ele>201.53</ele>
        <time>2016-04-22T07:15:52Z</time>
      </trkpt>
      <trkpt lat="47.04407" lon="5.39976">
        <ele>202.98</ele>
        <time>2016-04-22T07:15:58Z</time>
      </trkpt>
      <trkpt lat="47.0443" lon="5.39961">
        <ele>204.42</ele>
        <time>2016-04-22T07:16:08Z</time>
      </trkpt>
      <trkpt lat="47.04445" lon="5.3995">
        <ele>204.9</ele>
        <time>2016-04-22T07:16:14Z</time>
      </trkpt>
      <trkpt lat="47.04465" lon="5.39934">
        <ele>205.38</ele>
        <time>2016-04-22T07:16:22Z</time>
      </trkpt>
      <trkpt lat="47.04482" lon="5.39922">
        <ele>205.38</ele>
        <time>2016-04-22T07:16:29Z</time>
      </trkpt>
      <trkpt lat="47.04501" lon="5.39908">
        <ele>207.3</ele>
        <time>2016-04-22T07:16:38Z</time>
      </trkpt>
      <trkpt lat="47.04515" lon="5.39894">
        <ele>210.19</ele>
        <time>2016-04-22T07:16:46Z</time>
      </trkpt>
      <trkpt lat="47.04528" lon="5.39888">
        <ele>213.07</ele>
        <time>2016-04-22T07:16:52Z</time>
      </trkpt>
      <trkpt lat="47.04546" lon="5.3988">
        <ele>217.88</ele>
        <time>2016-04-22T07:17:01Z</time>
      </trkpt>
      <trkpt lat="47.04558" lon="5.39871">
        <ele>221.24</ele>
        <time>2016-04-22T07:17:08Z</time>
      </trkpt>
      <trkpt lat="47.04574" lon="5.39862">
        <ele>225.09</ele>
        <time>2016-04-22T07:17:16Z</time>
      </trkpt>
      <trkpt lat="47.0459" lon="5.39853">
        <ele>228.45</ele>
        <time>2016-04-22T07:17:24Z</time>
      </trkpt>
      <trkpt lat="47.04605" lon="5.39845">
        <ele>231.81</ele>
        <time>2016-04-22T07:17:32Z</time>
      </trkpt>
      <trkpt lat="47.04619" lon="5.39835">
        <ele>236.14</ele>
        <time>2016-04-22T07:17:40Z</time>
      </trkpt>
      <trkpt lat="47.04625" lon="5.3983">
        <ele>239.02</ele>
        <time>2016-04-22T07:17:45Z</time>
      </trkpt>
      <trkpt lat="47.04641" lon="5.39817">
        <ele>238.54</ele>
        <time>2016-04-22T07:17:53Z</time>
      </trkpt>
      <trkpt lat="47.04653" lon="5.39806">
        <ele>238.54</ele>
        <time>2016-04-22T07:17:59Z</time>
      </trkpt>
      <trkpt lat="47.04664" lon="5.39797">
        <ele>238.54</ele>
        <time>2016-04-22T07:18:03Z</time>
      </trkpt>
      <trkpt lat="47.04691" lon="5.39768">
        <ele>236.62</ele>
        <time>2016-04-22T07:18:13Z</time>
      </trkpt>
      <trkpt lat="47.04709" lon="5.39746">
        <ele>235.66</ele>
        <time>2016-04-22T07:18:20Z</time>
      </trkpt>
      <trkpt lat="47.04726" lon="5.39727">
        <ele>234.7</ele>
        <time>2016-04-22T07:18:27Z</time>
      </trkpt>
      <trkpt lat="47.04733" lon="5.39722">
        <ele>234.22</ele>
        <time>2016-04-22T07:18:30Z</time>
      </trkpt>
      <trkpt lat="47.04743" lon="5.39714">
        <ele>234.22</ele>
        <time>2016-04-22T07:18:36Z</time>
      </trkpt>
      <trkpt lat="47.04762" lon="5.39702">
        <ele>233.26</ele>
        <time>2016-04-22T07:18:44Z</time>
      </trkpt>
      <trkpt lat="47.04783" lon="5.39687">
        <ele>232.78</ele>
        <time>2016-04-22T07:18:50Z</time>
      </trkpt>
      <trkpt lat="47.04789" lon="5.39683">
        <ele>232.78</ele>
        <time>2016-04-22T07:18:52Z</time>
      </trkpt>
      <trkpt lat="47.04796" lon="5.39676">
        <ele>232.78</ele>
        <time>2016-04-22T07:18:55Z</time>
      </trkpt>
      <trkpt lat="47.04816" lon="5.39664">
        <ele>233.26</ele>
        <time>2016-04-22T07:19:03Z</time>
      </trkpt>
      <trkpt lat="47.04828" lon="5.39658">
        <ele>234.7</ele>
        <time>2016-04-22T07:19:09Z</time>
      </trkpt>
      <trkpt lat="47.04841" lon="5.39652">
        <ele>235.66</ele>
        <time>2016-04-22T07:19:15Z</time>
      </trkpt>
      <trkpt lat="47.04858" lon="5.39641">
        <ele>237.58</ele>
        <time>2016-04-22T07:19:23Z</time>
      </trkpt>
      <trkpt lat="47.04874" lon="5.3963">
        <ele>239.51</ele>
        <time>2016-04-22T07:19:30Z</time>
      </trkpt>
      <trkpt lat="47.04889" lon="5.3962">
        <ele>238.06</ele>
        <time>2016-04-22T07:19:36Z</time>
      </trkpt>
      <trkpt lat="47.04909" lon="5.39601">
        <ele>234.22</ele>
        <time>2016-04-22T07:19:43Z</time>
      </trkpt>
      <trkpt lat="47.04927" lon="5.39591">
        <ele>230.85</ele>
        <time>2016-04-22T07:19:51Z</time>
      </trkpt>
      <trkpt lat="47.04949" lon="5.39582">
        <ele>229.89</ele>
        <time>2016-04-22T07:19:58Z</time>
      </trkpt>
      <trkpt lat="47.04965" lon="5.39577">
        <ele>229.41</ele>
        <time>2016-04-22T07:20:04Z</time>
      </trkpt>
      <trkpt lat="47.04991" lon="5.39562">
        <ele>227.01</ele>
        <time>2016-04-22T07:20:13Z</time>
      </trkpt>
      <trkpt lat="47.05013" lon="5.3955">
        <ele>227.49</ele>
        <time>2016-04-22T07:20:21Z</time>
      </trkpt>
      <trkpt lat="47.05037" lon="5.39533">
        <ele>228.45</ele>
        <time>2016-04-22T07:20:30Z</time>
      </trkpt>
      <trkpt lat="47.05052" lon="5.39524">
        <ele>231.33</ele>
        <time>2016-04-22T07:20:37Z</time>
      </trkpt>
      <trkpt lat="47.05065" lon="5.39519">
        <ele>233.74</ele>
        <time>2016-04-22T07:20:43Z</time>
      </trkpt>
      <trkpt lat="47.05078" lon="5.39511">
        <ele>236.14</ele>
        <time>2016-04-22T07:20:49Z</time>
      </trkpt>
      <trkpt lat="47.05093" lon="5.39504">
        <ele>239.51</ele>
        <time>2016-04-22T07:20:56Z</time>
      </trkpt>
      <trkpt lat="47.0511" lon="5.39495">
        <ele>242.87</ele>
        <time>2016-04-22T07:21:04Z</time>
      </trkpt>
      <trkpt lat="47.05126" lon="5.39483">
        <ele>245.27</ele>
        <time>2016-04-22T07:21:12Z</time>
      </trkpt>
      <trkpt lat="47.05147" lon="5.39466">
        <ele>248.16</ele>
        <time>2016-04-22T07:21:22Z</time>
      </trkpt>
      <trkpt lat="47.05162" lon="5.39456">
        <ele>249.6</ele>
        <time>2016-04-22T07:21:29Z</time>
      </trkpt>
      <trkpt lat="47.05176" lon="5.39448">
        <ele>250.08</ele>
        <time>2016-04-22T07:21:35Z</time>
      </trkpt>
      <trkpt lat="47.05194" lon="5.39435">
        <ele>250.08</ele>
        <time>2016-04-22T07:21:42Z</time>
      </trkpt>
      <trkpt lat="47.05214" lon="5.39421">
        <ele>249.6</ele>
        <time>2016-04-22T07:21:50Z</time>
      </trkpt>
      <trkpt lat="47.05231" lon="5.39408">
        <ele>248.64</ele>
        <time>2016-04-22T07:21:57Z</time>
      </trkpt>
      <trkpt lat="47.05244" lon="5.39397">
        <ele>248.64</ele>
        <time>2016-04-22T07:22:03Z</time>
      </trkpt>
      <trkpt lat="47.05266" lon="5.39377">
        <ele>246.23</ele>
        <time>2016-04-22T07:22:12Z</time>
      </trkpt>
      <trkpt lat="47.05286" lon="5.39357">
        <ele>243.35</ele>
        <time>2016-04-22T07:22:20Z</time>
      </trkpt>
      <trkpt lat="47.05304" lon="5.39339">
        <ele>240.95</ele>
        <time>2016-04-22T07:22:27Z</time>
      </trkpt>
      <trkpt lat="47.05325" lon="5.39323">
        <ele>236.14</ele>
        <time>2016-04-22T07:22:35Z</time>
      </trkpt>
      <trkpt lat="47.05343" lon="5.39304">
        <ele>234.22</ele>
        <time>2016-04-22T07:22:42Z</time>
      </trkpt>
      <trkpt lat="47.05364" lon="5.3929">
        <ele>231.81</ele>
        <time>2016-04-22T07:22:50Z</time>
      </trkpt>
      <trkpt lat="47.05382" lon="5.39276">
        <ele>229.41</ele>
        <time>2016-04-22T07:22:57Z</time>
      </trkpt>
      <trkpt lat="47.05401" lon="5.39262">
        <ele>227.49</ele>
        <time>2016-04-22T07:23:04Z</time>
      </trkpt>
      <trkpt lat="47.05423" lon="5.39247">
        <ele>226.05</ele>
        <time>2016-04-22T07:23:12Z</time>
      </trkpt>
      <trkpt lat="47.0544" lon="5.39237">
        <ele>224.12</ele>
        <time>2016-04-22T07:23:18Z</time>
      </trkpt>
      <trkpt lat="47.05458" lon="5.39223">
        <ele>223.64</ele>
        <time>2016-04-22T07:23:25Z</time>
      </trkpt>
      <trkpt lat="47.05474" lon="5.39206">
        <ele>224.12</ele>
        <time>2016-04-22T07:23:32Z</time>
      </trkpt>
      <trkpt lat="47.05487" lon="5.3919">
        <ele>224.61</ele>
        <time>2016-04-22T07:23:39Z</time>
      </trkpt>
      <trkpt lat="47.05501" lon="5.39178">
        <ele>225.57</ele>
        <time>2016-04-22T07:23:46Z</time>
      </trkpt>
      <trkpt lat="47.05503" lon="5.39176">
        <ele>225.57</ele>
        <time>2016-04-22T07:23:47Z</time>
      </trkpt>
      <trkpt lat="47.05512" lon="5.39161">
        <ele>228.45</ele>
        <time>2016-04-22T07:23:55Z</time>
      </trkpt>
      <trkpt lat="47.05524" lon="5.39151">
        <ele>232.3</ele>
        <time>2016-04-22T07:24:02Z</time>
      </trkpt>
      <trkpt lat="47.05525" lon="5.3915">
        <ele>232.78</ele>
        <time>2016-04-22T07:24:03Z</time>
      </trkpt>
      <trkpt lat="47.05527" lon="5.39149">
        <ele>233.74</ele>
        <time>2016-04-22T07:24:05Z</time>
      </trkpt>
      <trkpt lat="47.05537" lon="5.39142">
        <ele>237.1</ele>
        <time>2016-04-22T07:24:11Z</time>
      </trkpt>
      <trkpt lat="47.05561" lon="5.39121">
        <ele>239.51</ele>
        <time>2016-04-22T07:24:20Z</time>
      </trkpt>
      <trkpt lat="47.05579" lon="5.39105">
        <ele>241.91</ele>
        <time>2016-04-22T07:24:27Z</time>
      </trkpt>
      <trkpt lat="47.05601" lon="5.39093">
        <ele>243.83</ele>
        <time>2016-04-22T07:24:34Z</time>
      </trkpt>
      <trkpt lat="47.0562" lon="5.39073">
        <ele>245.75</ele>
        <time>2016-04-22T07:24:43Z</time>
      </trkpt>
      <trkpt lat="47.05636" lon="5.39057">
        <ele>245.27</ele>
        <time>2016-04-22T07:24:49Z</time>
      </trkpt>
      <trkpt lat="47.05651" lon="5.39041">
        <ele>243.83</ele>
        <time>2016-04-22T07:24:55Z</time>
      </trkpt>
      <trkpt lat="47.05658" lon="5.39032">
        <ele>241.91</ele>
        <time>2016-04-22T07:25:00Z</time>
      </trkpt>
      <trkpt lat="47.05672" lon="5.39014">
        <ele>239.02</ele>
        <time>2016-04-22T07:25:06Z</time>
      </trkpt>
      <trkpt lat="47.05688" lon="5.38993">
        <ele>236.14</ele>
        <time>2016-04-22T07:25:14Z</time>
      </trkpt>
      <trkpt lat="47.057" lon="5.38974">
        <ele>235.18</ele>
        <time>2016-04-22T07:25:21Z</time>
      </trkpt>
      <trkpt lat="47.05702" lon="5.38969">
        <ele>235.18</ele>
        <time>2016-04-22T07:25:23Z</time>
      </trkpt>
      <trkpt lat="47.05729" lon="5.38931">
        <ele>233.26</ele>
        <time>2016-04-22T07:25:31Z</time>
      </trkpt>
      <trkpt lat="47.05739" lon="5.3891">
        <ele>231.81</ele>
        <time>2016-04-22T07:25:36Z</time>
      </trkpt>
      <trkpt lat="47.05753" lon="5.38877">
        <ele>227.97</ele>
        <time>2016-04-22T07:25:44Z</time>
      </trkpt>
      <trkpt lat="47.05764" lon="5.38852">
        <ele>225.09</ele>
        <time>2016-04-22T07:25:51Z</time>
      </trkpt>
      <trkpt lat="47.05775" lon="5.38829">
        <ele>221.72</ele>
        <time>2016-04-22T07:25:58Z</time>
      </trkpt>
      <trkpt lat="47.05786" lon="5.38809">
        <ele>219.8</ele>
        <time>2016-04-22T07:26:05Z</time>
      </trkpt>
      <trkpt lat="47.05802" lon="5.38784">
        <ele>218.84</ele>
        <time>2016-04-22T07:26:14Z</time>
      </trkpt>
      <trkpt lat="47.05817" lon="5.38758">
        <ele>217.4</ele>
        <time>2016-04-22T07:26:22Z</time>
      </trkpt>
      <trkpt lat="47.05829" lon="5.38734">
        <ele>216.43</ele>
        <time>2016-04-22T07:26:29Z</time>
      </trkpt>
      <trkpt lat="47.0584" lon="5.38706">
        <ele>215.47</ele>
        <time>2016-04-22T07:26:36Z</time>
      </trkpt>
      <trkpt lat="47.05848" lon="5.38658">
        <ele>204.42</ele>
        <time>2016-04-22T07:26:46Z</time>
      </trkpt>
      <trkpt lat="47.05853" lon="5.38636">
        <ele>202.01</ele>
        <time>2016-04-22T07:26:52Z</time>
      </trkpt>
      <trkpt lat="47.05856" lon="5.38609">
        <ele>199.13</ele>
        <time>2016-04-22T07:26:59Z</time>
      </trkpt>
      <trkpt lat="47.05858" lon="5.38586">
        <ele>199.13</ele>
        <time>2016-04-22T07:27:05Z</time>
      </trkpt>
      <trkpt lat="47.05864" lon="5.38563">
        <ele>197.69</ele>
        <time>2016-04-22T07:27:11Z</time>
      </trkpt>
      <trkpt lat="47.05874" lon="5.38541">
        <ele>196.25</ele>
        <time>2016-04-22T07:27:17Z</time>
      </trkpt>
      <trkpt lat="47.05875" lon="5.38521">
        <ele>194.32</ele>
        <time>2016-04-22T07:27:22Z</time>
      </trkpt>
      <trkpt lat="47.05878" lon="5.38498">
        <ele>194.32</ele>
        <time>2016-04-22T07:27:28Z</time>
      </trkpt>
      <trkpt lat="47.05881" lon="5.38484">
        <ele>193.84</ele>
        <time>2016-04-22T07:27:32Z</time>
      </trkpt>
      <trkpt lat="47.05883" lon="5.38458">
        <ele>193.84</ele>
        <time>2016-04-22T07:27:39Z</time>
      </trkpt>
      <trkpt lat="47.05884" lon="5.38442">
        <ele>193.36</ele>
        <time>2016-04-22T07:27:45Z</time>
      </trkpt>
      <trkpt lat="47.05878" lon="5.38437">
        <ele>191.44</ele>
        <time>2016-04-22T07:27:49Z</time>
      </trkpt>
      <trkpt lat="47.05844" lon="5.38435">
        <ele>190.48</ele>
        <time>2016-04-22T07:27:57Z</time>
      </trkpt>
      <trkpt lat="47.05825" lon="5.38435">
        <ele>191.92</ele>
        <time>2016-04-22T07:28:05Z</time>
      </trkpt>
      <trkpt lat="47.05812" lon="5.38434">
        <ele>191.44</ele>
        <time>2016-04-22T07:28:12Z</time>
      </trkpt>
      <trkpt lat="47.05807" lon="5.38432">
        <ele>191.92</ele>
        <time>2016-04-22T07:28:17Z</time>
      </trkpt>
      <trkpt lat="47.05807" lon="5.38434">
        <ele>192.4</ele>
        <time>2016-04-22T07:28:20Z</time>
      </trkpt>
      <trkpt lat="47.05809" lon="5.38442">
        <ele>194.32</ele>
        <time>2016-04-22T07:28:29Z</time>
      </trkpt>
      <trkpt lat="47.05812" lon="5.38446">
        <ele>196.73</ele>
        <time>2016-04-22T07:28:36Z</time>
      </trkpt>
      <trkpt lat="47.05814" lon="5.38446">
        <ele>197.69</ele>
        <time>2016-04-22T07:28:42Z</time>
      </trkpt>
      <trkpt lat="47.05817" lon="5.38447">
        <ele>199.13</ele>
        <time>2016-04-22T07:28:49Z</time>
      </trkpt>
      <trkpt lat="47.05823" lon="5.38448">
        <ele>201.05</ele>
        <time>2016-04-22T07:28:55Z</time>
      </trkpt>
      <trkpt lat="47.05832" lon="5.38447">
        <ele>202.01</ele>
        <time>2016-04-22T07:29:01Z</time>
      </trkpt>
      <trkpt lat="47.05841" lon="5.38445">
        <ele>202.98</ele>
        <time>2016-04-22T07:29:07Z</time>
      </trkpt>
      <trkpt lat="47.05855" lon="5.3843">
        <ele>204.9</ele>
        <time>2016-04-22T07:29:14Z</time>
      </trkpt>
      <trkpt lat="47.05865" lon="5.38421">
        <ele>206.82</ele>
        <time>2016-04-22T07:29:19Z</time>
      </trkpt>
      <trkpt lat="47.05882" lon="5.38406">
        <ele>210.19</ele>
        <time>2016-04-22T07:29:26Z</time>
      </trkpt>
      <trkpt lat="47.05895" lon="5.38392">
        <ele>212.11</ele>
        <time>2016-04-22T07:29:32Z</time>
      </trkpt>
      <trkpt lat="47.05914" lon="5.38377">
        <ele>214.99</ele>
        <time>2016-04-22T07:29:41Z</time>
      </trkpt>
      <trkpt lat="47.05931" lon="5.38363">
        <ele>218.36</ele>
        <time>2016-04-22T07:29:49Z</time>
      </trkpt>
      <trkpt lat="47.05944" lon="5.38353">
        <ele>223.16</ele>
        <time>2016-04-22T07:29:56Z</time>
      </trkpt>
      <trkpt lat="47.05946" lon="5.38352">
        <ele>223.64</ele>
        <time>2016-04-22T07:29:57Z</time>
      </trkpt>
      <trkpt lat="47.05957" lon="5.38343">
        <ele>227.49</ele>
        <time>2016-04-22T07:30:03Z</time>
      </trkpt>
      <trkpt lat="47.0597" lon="5.38331">
        <ele>232.3</ele>
        <time>2016-04-22T07:30:10Z</time>
      </trkpt>
      <trkpt lat="47.0598" lon="5.38322">
        <ele>236.14</ele>
        <time>2016-04-22T07:30:16Z</time>
      </trkpt>
      <trkpt lat="47.05989" lon="5.3831">
        <ele>236.14</ele>
        <time>2016-04-22T07:30:22Z</time>
      </trkpt>
      <trkpt lat="47.05996" lon="5.383">
        <ele>236.14</ele>
        <time>2016-04-22T07:30:27Z</time>
      </trkpt>
      <trkpt lat="47.06003" lon="5.38281">
        <ele>235.66</ele>
        <time>2016-04-22T07:30:34Z</time>
      </trkpt>
      <trkpt lat="47.06004" lon="5.38277">
        <ele>235.66</ele>
        <time>2016-04-22T07:30:35Z</time>
      </trkpt>
      <trkpt lat="47.06012" lon="5.38259">
        <ele>235.66</ele>
        <time>2016-04-22T07:30:40Z</time>
      </trkpt>
      <trkpt lat="47.06023" lon="5.38233">
        <ele>235.66</ele>
        <time>2016-04-22T07:30:46Z</time>
      </trkpt>
      <trkpt lat="47.06027" lon="5.38214">
        <ele>235.18</ele>
        <time>2016-04-22T07:30:51Z</time>
      </trkpt>
      <trkpt lat="47.06033" lon="5.38191">
        <ele>234.7</ele>
        <time>2016-04-22T07:30:57Z</time>
      </trkpt>
      <trkpt lat="47.0604" lon="5.38169">
        <ele>230.85</ele>
        <time>2016-04-22T07:31:02Z</time>
      </trkpt>
      <trkpt lat="47.06048" lon="5.38147">
        <ele>229.89</ele>
        <time>2016-04-22T07:31:08Z</time>
      </trkpt>
      <trkpt lat="47.06054" lon="5.38123">
        <ele>229.89</ele>
        <time>2016-04-22T07:31:14Z</time>
      </trkpt>
      <trkpt lat="47.06061" lon="5.38102">
        <ele>229.41</ele>
        <time>2016-04-22T07:31:19Z</time>
      </trkpt>
      <trkpt lat="47.06069" lon="5.38075">
        <ele>228.93</ele>
        <time>2016-04-22T07:31:27Z</time>
      </trkpt>
      <trkpt lat="47.06076" lon="5.38051">
        <ele>228.45</ele>
        <time>2016-04-22T07:31:34Z</time>
      </trkpt>
      <trkpt lat="47.06081" lon="5.38023">
        <ele>227.01</ele>
        <time>2016-04-22T07:31:40Z</time>
      </trkpt>
      <trkpt lat="47.0609" lon="5.37987">
        <ele>226.05</ele>
        <time>2016-04-22T07:31:48Z</time>
      </trkpt>
      <trkpt lat="47.061" lon="5.37964">
        <ele>225.09</ele>
        <time>2016-04-22T07:31:54Z</time>
      </trkpt>
      <trkpt lat="47.06104" lon="5.37937">
        <ele>224.61</ele>
        <time>2016-04-22T07:32:02Z</time>
      </trkpt>
      <trkpt lat="47.0611" lon="5.37917">
        <ele>225.09</ele>
        <time>2016-04-22T07:32:08Z</time>
      </trkpt>
      <trkpt lat="47.06117" lon="5.37892">
        <ele>225.09</ele>
        <time>2016-04-22T07:32:14Z</time>
      </trkpt>
      <trkpt lat="47.06119" lon="5.3787">
        <ele>224.12</ele>
        <time>2016-04-22T07:32:20Z</time>
      </trkpt>
      <trkpt lat="47.06124" lon="5.37846">
        <ele>223.64</ele>
        <time>2016-04-22T07:32:26Z</time>
      </trkpt>
      <trkpt lat="47.06138" lon="5.37808">
        <ele>220.28</ele>
        <time>2016-04-22T07:32:33Z</time>
      </trkpt>
      <trkpt lat="47.0615" lon="5.37776">
        <ele>217.88</ele>
        <time>2016-04-22T07:32:40Z</time>
      </trkpt>
      <trkpt lat="47.06156" lon="5.37752">
        <ele>216.91</ele>
        <time>2016-04-22T07:32:46Z</time>
      </trkpt>
      <trkpt lat="47.06167" lon="5.37729">
        <ele>215.47</ele>
        <time>2016-04-22T07:32:52Z</time>
      </trkpt>
      <trkpt lat="47.06171" lon="5.37706">
        <ele>214.99</ele>
        <time>2016-04-22T07:32:58Z</time>
      </trkpt>
      <trkpt lat="47.06176" lon="5.37682">
        <ele>213.55</ele>
        <time>2016-04-22T07:33:04Z</time>
      </trkpt>
      <trkpt lat="47.0618" lon="5.3766">
        <ele>212.59</ele>
        <time>2016-04-22T07:33:10Z</time>
      </trkpt>
      <trkpt lat="47.06187" lon="5.37634">
        <ele>212.11</ele>
        <time>2016-04-22T07:33:17Z</time>
      </trkpt>
      <trkpt lat="47.06191" lon="5.37607">
        <ele>212.11</ele>
        <time>2016-04-22T07:33:24Z</time>
      </trkpt>
      <trkpt lat="47.06193" lon="5.37578">
        <ele>210.19</ele>
        <time>2016-04-22T07:33:31Z</time>
      </trkpt>
      <trkpt lat="47.06198" lon="5.37554">
        <ele>208.74</ele>
        <time>2016-04-22T07:33:37Z</time>
      </trkpt>
      <trkpt lat="47.06201" lon="5.3753">
        <ele>208.74</ele>
        <time>2016-04-22T07:33:44Z</time>
      </trkpt>
      <trkpt lat="47.06205" lon="5.37507">
        <ele>208.26</ele>
        <time>2016-04-22T07:33:50Z</time>
      </trkpt>
      <trkpt lat="47.06205" lon="5.37474">
        <ele>202.01</ele>
        <time>2016-04-22T07:33:56Z</time>
      </trkpt>
      <trkpt lat="47.06208" lon="5.37449">
        <ele>198.17</ele>
        <time>2016-04-22T07:34:02Z</time>
      </trkpt>
      <trkpt lat="47.06213" lon="5.37418">
        <ele>196.73</ele>
        <time>2016-04-22T07:34:10Z</time>
      </trkpt>
      <trkpt lat="47.06218" lon="5.37392">
        <ele>196.25</ele>
        <time>2016-04-22T07:34:17Z</time>
      </trkpt>
      <trkpt lat="47.06224" lon="5.37365">
        <ele>195.77</ele>
        <time>2016-04-22T07:34:24Z</time>
      </trkpt>
      <trkpt lat="47.06229" lon="5.37339">
        <ele>195.77</ele>
        <time>2016-04-22T07:34:31Z</time>
      </trkpt>
      <trkpt lat="47.06235" lon="5.37309">
        <ele>195.28</ele>
        <time>2016-04-22T07:34:39Z</time>
      </trkpt>
      <trkpt lat="47.06241" lon="5.37279">
        <ele>197.21</ele>
        <time>2016-04-22T07:34:47Z</time>
      </trkpt>
      <trkpt lat="47.06246" lon="5.37252">
        <ele>198.17</ele>
        <time>2016-04-22T07:34:54Z</time>
      </trkpt>
      <trkpt lat="47.06252" lon="5.37226">
        <ele>198.65</ele>
        <time>2016-04-22T07:35:01Z</time>
      </trkpt>
      <trkpt lat="47.06261" lon="5.37203">
        <ele>200.09</ele>
        <time>2016-04-22T07:35:08Z</time>
      </trkpt>
      <trkpt lat="47.06263" lon="5.37183">
        <ele>200.09</ele>
        <time>2016-04-22T07:35:13Z</time>
      </trkpt>
      <trkpt lat="47.06266" lon="5.37158">
        <ele>199.61</ele>
        <time>2016-04-22T07:35:19Z</time>
      </trkpt>
      <trkpt lat="47.06272" lon="5.37126">
        <ele>200.57</ele>
        <time>2016-04-22T07:35:27Z</time>
      </trkpt>
      <trkpt lat="47.06275" lon="5.37103">
        <ele>201.05</ele>
        <time>2016-04-22T07:35:33Z</time>
      </trkpt>
      <trkpt lat="47.06281" lon="5.37075">
        <ele>201.05</ele>
        <time>2016-04-22T07:35:40Z</time>
      </trkpt>
      <trkpt lat="47.06286" lon="5.37056">
        <ele>200.09</ele>
        <time>2016-04-22T07:35:45Z</time>
      </trkpt>
      <trkpt lat="47.0629" lon="5.37029">
        <ele>200.57</ele>
        <time>2016-04-22T07:35:52Z</time>
      </trkpt>
      <trkpt lat="47.06297" lon="5.37">
        <ele>199.13</ele>
        <time>2016-04-22T07:36:00Z</time>
      </trkpt>
      <trkpt lat="47.06302" lon="5.36976">
        <ele>198.65</ele>
        <time>2016-04-22T07:36:06Z</time>
      </trkpt>
      <trkpt lat="47.06307" lon="5.36949">
        <ele>199.61</ele>
        <time>2016-04-22T07:36:13Z</time>
      </trkpt>
      <trkpt lat="47.06313" lon="5.36918">
        <ele>200.09</ele>
        <time>2016-04-22T07:36:21Z</time>
      </trkpt>
      <trkpt lat="47.06318" lon="5.36895">
        <ele>200.09</ele>
        <time>2016-04-22T07:36:27Z</time>
      </trkpt>
      <trkpt lat="47.06322" lon="5.36869">
        <ele>199.61</ele>
        <time>2016-04-22T07:36:34Z</time>
      </trkpt>
      <trkpt lat="47.06329" lon="5.36839">
        <ele>199.13</ele>
        <time>2016-04-22T07:36:42Z</time>
      </trkpt>
      <trkpt lat="47.06333" lon="5.36815">
        <ele>199.61</ele>
        <time>2016-04-22T07:36:48Z</time>
      </trkpt>
      <trkpt lat="47.06338" lon="5.36792">
        <ele>200.57</ele>
        <time>2016-04-22T07:36:54Z</time>
      </trkpt>
      <trkpt lat="47.06344" lon="5.36766">
        <ele>201.05</ele>
        <time>2016-04-22T07:37:01Z</time>
      </trkpt>
      <trkpt lat="47.06349" lon="5.36737">
        <ele>201.53</ele>
        <time>2016-04-22T07:37:08Z</time>
      </trkpt>
      <trkpt lat="47.06355" lon="5.36714">
        <ele>202.49</ele>
        <time>2016-04-22T07:37:14Z</time>
      </trkpt>
      <trkpt lat="47.0636" lon="5.36691">
        <ele>203.94</ele>
        <time>2016-04-22T07:37:20Z</time>
      </trkpt>
      <trkpt lat="47.06366" lon="5.36662">
        <ele>202.98</ele>
        <time>2016-04-22T07:37:28Z</time>
      </trkpt>
      <trkpt lat="47.06373" lon="5.36636">
        <ele>201.53</ele>
        <time>2016-04-22T07:37:35Z</time>
      </trkpt>
      <trkpt lat="47.0638" lon="5.36613">
        <ele>201.05</ele>
        <time>2016-04-22T07:37:41Z</time>
      </trkpt>
      <trkpt lat="47.06386" lon="5.36586">
        <ele>200.09</ele>
        <time>2016-04-22T07:37:48Z</time>
      </trkpt>
      <trkpt lat="47.06393" lon="5.3656">
        <ele>199.61</ele>
        <time>2016-04-22T07:37:55Z</time>
      </trkpt>
      <trkpt lat="47.06398" lon="5.36541">
        <ele>199.61</ele>
        <time>2016-04-22T07:38:00Z</time>
      </trkpt>
      <trkpt lat="47.06404" lon="5.36518">
        <ele>200.57</ele>
        <time>2016-04-22T07:38:06Z</time>
      </trkpt>
      <trkpt lat="47.06409" lon="5.36497">
        <ele>201.53</ele>
        <time>2016-04-22T07:38:12Z</time>
      </trkpt>
      <trkpt lat="47.06414" lon="5.36474">
        <ele>201.53</ele>
        <time>2016-04-22T07:38:18Z</time>
      </trkpt>
      <trkpt lat="47.06421" lon="5.36451">
        <ele>202.01</ele>
        <time>2016-04-22T07:38:24Z</time>
      </trkpt>
      <trkpt lat="47.06422" lon="5.36429">
        <ele>201.05</ele>
        <time>2016-04-22T07:38:30Z</time>
      </trkpt>
      <trkpt lat="47.06425" lon="5.36406">
        <ele>199.13</ele>
        <time>2016-04-22T07:38:36Z</time>
      </trkpt>
      <trkpt lat="47.06433" lon="5.36386">
        <ele>197.21</ele>
        <time>2016-04-22T07:38:41Z</time>
      </trkpt>
      <trkpt lat="47.06441" lon="5.3636">
        <ele>196.25</ele>
        <time>2016-04-22T07:38:48Z</time>
      </trkpt>
      <trkpt lat="47.06448" lon="5.36329">
        <ele>196.25</ele>
        <time>2016-04-22T07:38:56Z</time>
      </trkpt>
      <trkpt lat="47.06455" lon="5.36297">
        <ele>196.25</ele>
        <time>2016-04-22T07:39:04Z</time>
      </trkpt>
      <trkpt lat="47.0646" lon="5.36272">
        <ele>196.73</ele>
        <time>2016-04-22T07:39:10Z</time>
      </trkpt>
      <trkpt lat="47.06464" lon="5.36246">
        <ele>196.73</ele>
        <time>2016-04-22T07:39:17Z</time>
      </trkpt>
      <trkpt lat="47.06469" lon="5.36222">
        <ele>196.25</ele>
        <time>2016-04-22T07:39:23Z</time>
      </trkpt>
      <trkpt lat="47.06473" lon="5.36202">
        <ele>195.77</ele>
        <time>2016-04-22T07:39:28Z</time>
      </trkpt>
      <trkpt lat="47.06478" lon="5.36176">
        <ele>195.77</ele>
        <time>2016-04-22T07:39:34Z</time>
      </trkpt>
      <trkpt lat="47.06483" lon="5.36153">
        <ele>196.25</ele>
        <time>2016-04-22T07:39:40Z</time>
      </trkpt>
      <trkpt lat="47.06486" lon="5.36133">
        <ele>196.73</ele>
        <time>2016-04-22T07:39:45Z</time>
      </trkpt>
      <trkpt lat="47.06491" lon="5.36106">
        <ele>197.21</ele>
        <time>2016-04-22T07:39:52Z</time>
      </trkpt>
      <trkpt lat="47.06497" lon="5.36083">
        <ele>197.69</ele>
        <time>2016-04-22T07:39:58Z</time>
      </trkpt>
      <trkpt lat="47.06505" lon="5.36062">
        <ele>198.17</ele>
        <time>2016-04-22T07:40:04Z</time>
      </trkpt>
      <trkpt lat="47.06513" lon="5.36044">
        <ele>198.65</ele>
        <time>2016-04-22T07:40:10Z</time>
      </trkpt>
      <trkpt lat="47.06527" lon="5.36056">
        <ele>199.13</ele>
        <time>2016-04-22T07:40:17Z</time>
      </trkpt>
      <trkpt lat="47.06539" lon="5.36072">
        <ele>199.13</ele>
        <time>2016-04-22T07:40:23Z</time>
      </trkpt>
      <trkpt lat="47.06551" lon="5.36086">
        <ele>198.65</ele>
        <time>2016-04-22T07:40:28Z</time>
      </trkpt>
      <trkpt lat="47.06566" lon="5.36101">
        <ele>197.21</ele>
        <time>2016-04-22T07:40:34Z</time>
      </trkpt>
      <trkpt lat="47.0658" lon="5.36116">
        <ele>196.25</ele>
        <time>2016-04-22T07:40:40Z</time>
      </trkpt>
      <trkpt lat="47.06595" lon="5.36132">
        <ele>195.77</ele>
        <time>2016-04-22T07:40:47Z</time>
      </trkpt>
      <trkpt lat="47.06611" lon="5.36149">
        <ele>195.28</ele>
        <time>2016-04-22T07:40:54Z</time>
      </trkpt>
      <trkpt lat="47.06624" lon="5.36164">
        <ele>194.32</ele>
        <time>2016-04-22T07:41:00Z</time>
      </trkpt>
      <trkpt lat="47.06636" lon="5.36176">
        <ele>193.36</ele>
        <time>2016-04-22T07:41:05Z</time>
      </trkpt>
      <trkpt lat="47.06651" lon="5.36192">
        <ele>192.88</ele>
        <time>2016-04-22T07:41:12Z</time>
      </trkpt>
      <trkpt lat="47.06666" lon="5.36208">
        <ele>193.36</ele>
        <time>2016-04-22T07:41:19Z</time>
      </trkpt>
      <trkpt lat="47.06679" lon="5.36225">
        <ele>195.77</ele>
        <time>2016-04-22T07:41:26Z</time>
      </trkpt>
      <trkpt lat="47.06696" lon="5.36244">
        <ele>198.65</ele>
        <time>2016-04-22T07:41:34Z</time>
      </trkpt>
      <trkpt lat="47.06708" lon="5.36258">
        <ele>200.57</ele>
        <time>2016-04-22T07:41:40Z</time>
      </trkpt>
      <trkpt lat="47.06723" lon="5.36275">
        <ele>201.53</ele>
        <time>2016-04-22T07:41:47Z</time>
      </trkpt>
      <trkpt lat="47.06737" lon="5.36291">
        <ele>203.94</ele>
        <time>2016-04-22T07:41:54Z</time>
      </trkpt>
      <trkpt lat="47.0675" lon="5.36307">
        <ele>204.9</ele>
        <time>2016-04-22T07:42:00Z</time>
      </trkpt>
      <trkpt lat="47.06765" lon="5.36322">
        <ele>205.38</ele>
        <time>2016-04-22T07:42:07Z</time>
      </trkpt>
      <trkpt lat="47.06779" lon="5.36335">
        <ele>205.38</ele>
        <time>2016-04-22T07:42:13Z</time>
      </trkpt>
      <trkpt lat="47.06796" lon="5.36348">
        <ele>205.38</ele>
        <time>2016-04-22T07:42:20Z</time>
      </trkpt>
      <trkpt lat="47.06821" lon="5.36362">
        <ele>203.46</ele>
        <time>2016-04-22T07:42:29Z</time>
      </trkpt>
      <trkpt lat="47.06834" lon="5.36368">
        <ele>201.53</ele>
        <time>2016-04-22T07:42:34Z</time>
      </trkpt>
      <trkpt lat="47.0685" lon="5.36372">
        <ele>199.13</ele>
        <time>2016-04-22T07:42:40Z</time>
      </trkpt>
      <trkpt lat="47.06867" lon="5.36376">
        <ele>197.21</ele>
        <time>2016-04-22T07:42:46Z</time>
      </trkpt>
      <trkpt lat="47.06886" lon="5.36378">
        <ele>195.28</ele>
        <time>2016-04-22T07:42:53Z</time>
      </trkpt>
      <trkpt lat="47.069" lon="5.36381">
        <ele>194.32</ele>
        <time>2016-04-22T07:42:58Z</time>
      </trkpt>
      <trkpt lat="47.06916" lon="5.36385">
        <ele>192.88</ele>
        <time>2016-04-22T07:43:04Z</time>
      </trkpt>
      <trkpt lat="47.06931" lon="5.3639">
        <ele>192.4</ele>
        <time>2016-04-22T07:43:10Z</time>
      </trkpt>
      <trkpt lat="47.0695" lon="5.36393">
        <ele>193.36</ele>
        <time>2016-04-22T07:43:17Z</time>
      </trkpt>
      <trkpt lat="47.06968" lon="5.36398">
        <ele>195.77</ele>
        <time>2016-04-22T07:43:24Z</time>
      </trkpt>
      <trkpt lat="47.06982" lon="5.36404">
        <ele>197.21</ele>
        <time>2016-04-22T07:43:30Z</time>
      </trkpt>
      <trkpt lat="47.06997" lon="5.36411">
        <ele>199.13</ele>
        <time>2016-04-22T07:43:36Z</time>
      </trkpt>
      <trkpt lat="47.07014" lon="5.3642">
        <ele>201.05</ele>
        <time>2016-04-22T07:43:43Z</time>
      </trkpt>
      <trkpt lat="47.07027" lon="5.36426">
        <ele>201.53</ele>
        <time>2016-04-22T07:43:48Z</time>
      </trkpt>
      <trkpt lat="47.07043" lon="5.36434">
        <ele>202.01</ele>
        <time>2016-04-22T07:43:54Z</time>
      </trkpt>
      <trkpt lat="47.07058" lon="5.36438">
        <ele>200.57</ele>
        <time>2016-04-22T07:44:00Z</time>
      </trkpt>
      <trkpt lat="47.07078" lon="5.36444">
        <ele>201.05</ele>
        <time>2016-04-22T07:44:08Z</time>
      </trkpt>
      <trkpt lat="47.07095" lon="5.3645">
        <ele>201.05</ele>
        <time>2016-04-22T07:44:14Z</time>
      </trkpt>
      <trkpt lat="47.07109" lon="5.36453">
        <ele>200.57</ele>
        <time>2016-04-22T07:44:19Z</time>
      </trkpt>
      <trkpt lat="47.07122" lon="5.3646">
        <ele>200.09</ele>
        <time>2016-04-22T07:44:24Z</time>
      </trkpt>
      <trkpt lat="47.07137" lon="5.36466">
        <ele>200.09</ele>
        <time>2016-04-22T07:44:30Z</time>
      </trkpt>
      <trkpt lat="47.07139" lon="5.36467">
        <ele>200.09</ele>
        <time>2016-04-22T07:44:31Z</time>
      </trkpt>
      <trkpt lat="47.0715" lon="5.36449">
        <ele>198.65</ele>
        <time>2016-04-22T07:44:36Z</time>
      </trkpt>
      <trkpt lat="47.07154" lon="5.36441">
        <ele>199.13</ele>
        <time>2016-04-22T07:44:38Z</time>
      </trkpt>
      <trkpt lat="47.07166" lon="5.36417">
        <ele>200.09</ele>
        <time>2016-04-22T07:44:45Z</time>
      </trkpt>
      <trkpt lat="47.07173" lon="5.36394">
        <ele>201.53</ele>
        <time>2016-04-22T07:44:51Z</time>
      </trkpt>
      <trkpt lat="47.07177" lon="5.36376">
        <ele>200.09</ele>
        <time>2016-04-22T07:44:56Z</time>
      </trkpt>
      <trkpt lat="47.07183" lon="5.36358">
        <ele>197.69</ele>
        <time>2016-04-22T07:45:01Z</time>
      </trkpt>
      <trkpt lat="47.07193" lon="5.36336">
        <ele>196.73</ele>
        <time>2016-04-22T07:45:08Z</time>
      </trkpt>
      <trkpt lat="47.07206" lon="5.36317">
        <ele>195.77</ele>
        <time>2016-04-22T07:45:15Z</time>
      </trkpt>
      <trkpt lat="47.0722" lon="5.36301">
        <ele>195.77</ele>
        <time>2016-04-22T07:45:22Z</time>
      </trkpt>
      <trkpt lat="47.07235" lon="5.36282">
        <ele>196.73</ele>
        <time>2016-04-22T07:45:29Z</time>
      </trkpt>
      <trkpt lat="47.07249" lon="5.36267">
        <ele>197.69</ele>
        <time>2016-04-22T07:45:36Z</time>
      </trkpt>
      <trkpt lat="47.07258" lon="5.36254">
        <ele>197.69</ele>
        <time>2016-04-22T07:45:41Z</time>
      </trkpt>
      <trkpt lat="47.07273" lon="5.36238">
        <ele>198.65</ele>
        <time>2016-04-22T07:45:48Z</time>
      </trkpt>
      <trkpt lat="47.07283" lon="5.36223">
        <ele>199.13</ele>
        <time>2016-04-22T07:45:53Z</time>
      </trkpt>
      <trkpt lat="47.07296" lon="5.36205">
        <ele>198.65</ele>
        <time>2016-04-22T07:45:59Z</time>
      </trkpt>
      <trkpt lat="47.07308" lon="5.36187">
        <ele>198.65</ele>
        <time>2016-04-22T07:46:05Z</time>
      </trkpt>
      <trkpt lat="47.07323" lon="5.36164">
        <ele>198.17</ele>
        <time>2016-04-22T07:46:13Z</time>
      </trkpt>
      <trkpt lat="47.07333" lon="5.36145">
        <ele>198.65</ele>
        <time>2016-04-22T07:46:19Z</time>
      </trkpt>
      <trkpt lat="47.07343" lon="5.36124">
        <ele>199.13</ele>
        <time>2016-04-22T07:46:25Z</time>
      </trkpt>
      <trkpt lat="47.07352" lon="5.36098">
        <ele>198.17</ele>
        <time>2016-04-22T07:46:32Z</time>
      </trkpt>
      <trkpt lat="47.07359" lon="5.36081">
        <ele>199.13</ele>
        <time>2016-04-22T07:46:37Z</time>
      </trkpt>
      <trkpt lat="47.07363" lon="5.36068">
        <ele>200.09</ele>
        <time>2016-04-22T07:46:41Z</time>
      </trkpt>
      <trkpt lat="47.07369" lon="5.36045">
        <ele>200.09</ele>
        <time>2016-04-22T07:46:47Z</time>
      </trkpt>
      <trkpt lat="47.07374" lon="5.36025">
        <ele>199.61</ele>
        <time>2016-04-22T07:46:52Z</time>
      </trkpt>
      <trkpt lat="47.07379" lon="5.36012">
        <ele>199.13</ele>
        <time>2016-04-22T07:46:56Z</time>
      </trkpt>
      <trkpt lat="47.07392" lon="5.35986">
        <ele>197.69</ele>
        <time>2016-04-22T07:47:03Z</time>
      </trkpt>
      <trkpt lat="47.07399" lon="5.3596">
        <ele>197.21</ele>
        <time>2016-04-22T07:47:10Z</time>
      </trkpt>
      <trkpt lat="47.07409" lon="5.35937">
        <ele>196.25</ele>
        <time>2016-04-22T07:47:17Z</time>
      </trkpt>
      <trkpt lat="47.07424" lon="5.35916">
        <ele>194.8</ele>
        <time>2016-04-22T07:47:25Z</time>
      </trkpt>
      <trkpt lat="47.07437" lon="5.35903">
        <ele>194.32</ele>
        <time>2016-04-22T07:47:31Z</time>
      </trkpt>
      <trkpt lat="47.07452" lon="5.35894">
        <ele>194.32</ele>
        <time>2016-04-22T07:47:37Z</time>
      </trkpt>
      <trkpt lat="47.07468" lon="5.35879">
        <ele>194.32</ele>
        <time>2016-04-22T07:47:44Z</time>
      </trkpt>
      <trkpt lat="47.07485" lon="5.35867">
        <ele>195.28</ele>
        <time>2016-04-22T07:47:51Z</time>
      </trkpt>
      <trkpt lat="47.07496" lon="5.35857">
        <ele>195.28</ele>
        <time>2016-04-22T07:47:56Z</time>
      </trkpt>
      <trkpt lat="47.07514" lon="5.35847">
        <ele>195.28</ele>
        <time>2016-04-22T07:48:03Z</time>
      </trkpt>
      <trkpt lat="47.0753" lon="5.35841">
        <ele>195.77</ele>
        <time>2016-04-22T07:48:09Z</time>
      </trkpt>
      <trkpt lat="47.07549" lon="5.35832">
        <ele>195.28</ele>
        <time>2016-04-22T07:48:16Z</time>
      </trkpt>
      <trkpt lat="47.07564" lon="5.35826">
        <ele>195.77</ele>
        <time>2016-04-22T07:48:22Z</time>
      </trkpt>
      <trkpt lat="47.07578" lon="5.35821">
        <ele>196.25</ele>
        <time>2016-04-22T07:48:28Z</time>
      </trkpt>
      <trkpt lat="47.07598" lon="5.35814">
        <ele>197.21</ele>
        <time>2016-04-22T07:48:35Z</time>
      </trkpt>
      <trkpt lat="47.07609" lon="5.35809">
        <ele>196.73</ele>
        <time>2016-04-22T07:48:39Z</time>
      </trkpt>
      <trkpt lat="47.07626" lon="5.35804">
        <ele>197.21</ele>
        <time>2016-04-22T07:48:45Z</time>
      </trkpt>
      <trkpt lat="47.07642" lon="5.358">
        <ele>197.21</ele>
        <time>2016-04-22T07:48:51Z</time>
      </trkpt>
      <trkpt lat="47.07657" lon="5.35794">
        <ele>198.65</ele>
        <time>2016-04-22T07:48:57Z</time>
      </trkpt>
      <trkpt lat="47.07673" lon="5.35791">
        <ele>199.13</ele>
        <time>2016-04-22T07:49:03Z</time>
      </trkpt>
      <trkpt lat="47.07688" lon="5.35788">
        <ele>199.61</ele>
        <time>2016-04-22T07:49:09Z</time>
      </trkpt>
      <trkpt lat="47.07693" lon="5.35787">
        <ele>199.61</ele>
        <time>2016-04-22T07:49:11Z</time>
      </trkpt>
      <trkpt lat="47.07711" lon="5.35782">
        <ele>199.61</ele>
        <time>2016-04-22T07:49:17Z</time>
      </trkpt>
      <trkpt lat="47.07717" lon="5.3578">
        <ele>198.65</ele>
        <time>2016-04-22T07:49:19Z</time>
      </trkpt>
      <trkpt lat="47.07736" lon="5.35773">
        <ele>197.69</ele>
        <time>2016-04-22T07:49:26Z</time>
      </trkpt>
      <trkpt lat="47.0775" lon="5.35768">
        <ele>197.69</ele>
        <time>2016-04-22T07:49:31Z</time>
      </trkpt>
      <trkpt lat="47.07764" lon="5.35763">
        <ele>198.65</ele>
        <time>2016-04-22T07:49:36Z</time>
      </trkpt>
      <trkpt lat="47.0778" lon="5.35757">
        <ele>198.65</ele>
        <time>2016-04-22T07:49:42Z</time>
      </trkpt>
      <trkpt lat="47.07797" lon="5.35752">
        <ele>195.77</ele>
        <time>2016-04-22T07:49:48Z</time>
      </trkpt>
      <trkpt lat="47.07811" lon="5.35746">
        <ele>194.32</ele>
        <time>2016-04-22T07:49:53Z</time>
      </trkpt>
      <trkpt lat="47.07827" lon="5.3574">
        <ele>194.32</ele>
        <time>2016-04-22T07:49:59Z</time>
      </trkpt>
      <trkpt lat="47.0784" lon="5.35736">
        <ele>193.84</ele>
        <time>2016-04-22T07:50:04Z</time>
      </trkpt>
      <trkpt lat="47.07856" lon="5.35732">
        <ele>193.84</ele>
        <time>2016-04-22T07:50:10Z</time>
      </trkpt>
      <trkpt lat="47.07871" lon="5.35728">
        <ele>194.32</ele>
        <time>2016-04-22T07:50:16Z</time>
      </trkpt>
      <trkpt lat="47.07886" lon="5.35723">
        <ele>194.8</ele>
        <time>2016-04-22T07:50:22Z</time>
      </trkpt>
      <trkpt lat="47.07903" lon="5.35718">
        <ele>194.8</ele>
        <time>2016-04-22T07:50:28Z</time>
      </trkpt>
      <trkpt lat="47.07922" lon="5.35712">
        <ele>193.84</ele>
        <time>2016-04-22T07:50:35Z</time>
      </trkpt>
      <trkpt lat="47.07943" lon="5.35704">
        <ele>193.84</ele>
        <time>2016-04-22T07:50:43Z</time>
      </trkpt>
      <trkpt lat="47.07959" lon="5.35698">
        <ele>194.8</ele>
        <time>2016-04-22T07:50:49Z</time>
      </trkpt>
      <trkpt lat="47.07974" lon="5.35692">
        <ele>195.77</ele>
        <time>2016-04-22T07:50:55Z</time>
      </trkpt>
      <trkpt lat="47.0799" lon="5.35684">
        <ele>196.25</ele>
        <time>2016-04-22T07:51:01Z</time>
      </trkpt>
      <trkpt lat="47.08009" lon="5.35678">
        <ele>195.28</ele>
        <time>2016-04-22T07:51:08Z</time>
      </trkpt>
      <trkpt lat="47.08027" lon="5.35671">
        <ele>194.8</ele>
        <time>2016-04-22T07:51:15Z</time>
      </trkpt>
      <trkpt lat="47.08043" lon="5.35666">
        <ele>195.28</ele>
        <time>2016-04-22T07:51:21Z</time>
      </trkpt>
      <trkpt lat="47.08061" lon="5.3566">
        <ele>195.28</ele>
        <time>2016-04-22T07:51:28Z</time>
      </trkpt>
      <trkpt lat="47.08077" lon="5.35656">
        <ele>195.28</ele>
        <time>2016-04-22T07:51:34Z</time>
      </trkpt>
      <trkpt lat="47.08096" lon="5.35648">
        <ele>194.8</ele>
        <time>2016-04-22T07:51:41Z</time>
      </trkpt>
      <trkpt lat="47.0811" lon="5.35646">
        <ele>194.32</ele>
        <time>2016-04-22T07:51:46Z</time>
      </trkpt>
      <trkpt lat="47.08127" lon="5.35639">
        <ele>193.84</ele>
        <time>2016-04-22T07:51:53Z</time>
      </trkpt>
      <trkpt lat="47.08147" lon="5.35632">
        <ele>193.36</ele>
        <time>2016-04-22T07:52:01Z</time>
      </trkpt>
      <trkpt lat="47.08162" lon="5.35628">
        <ele>193.84</ele>
        <time>2016-04-22T07:52:06Z</time>
      </trkpt>
      <trkpt lat="47.08175" lon="5.35623">
        <ele>193.84</ele>
        <time>2016-04-22T07:52:11Z</time>
      </trkpt>
      <trkpt lat="47.08188" lon="5.35618">
        <ele>194.32</ele>
        <time>2016-04-22T07:52:16Z</time>
      </trkpt>
      <trkpt lat="47.08204" lon="5.35612">
        <ele>194.8</ele>
        <time>2016-04-22T07:52:22Z</time>
      </trkpt>
      <trkpt lat="47.08219" lon="5.35607">
        <ele>194.8</ele>
        <time>2016-04-22T07:52:28Z</time>
      </trkpt>
      <trkpt lat="47.08235" lon="5.35602">
        <ele>194.8</ele>
        <time>2016-04-22T07:52:34Z</time>
      </trkpt>
      <trkpt lat="47.08251" lon="5.35596">
        <ele>193.84</ele>
        <time>2016-04-22T07:52:40Z</time>
      </trkpt>
      <trkpt lat="47.08267" lon="5.35591">
        <ele>193.84</ele>
        <time>2016-04-22T07:52:46Z</time>
      </trkpt>
      <trkpt lat="47.08283" lon="5.35586">
        <ele>193.36</ele>
        <time>2016-04-22T07:52:52Z</time>
      </trkpt>
      <trkpt lat="47.08301" lon="5.35582">
        <ele>192.88</ele>
        <time>2016-04-22T07:52:59Z</time>
      </trkpt>
      <trkpt lat="47.08315" lon="5.35583">
        <ele>192.88</ele>
        <time>2016-04-22T07:53:04Z</time>
      </trkpt>
      <trkpt lat="47.08327" lon="5.35585">
        <ele>193.84</ele>
        <time>2016-04-22T07:53:09Z</time>
      </trkpt>
      <trkpt lat="47.08344" lon="5.35592">
        <ele>194.8</ele>
        <time>2016-04-22T07:53:16Z</time>
      </trkpt>
      <trkpt lat="47.08358" lon="5.356">
        <ele>196.73</ele>
        <time>2016-04-22T07:53:23Z</time>
      </trkpt>
      <trkpt lat="47.08372" lon="5.35608">
        <ele>198.65</ele>
        <time>2016-04-22T07:53:30Z</time>
      </trkpt>
      <trkpt lat="47.08384" lon="5.35618">
        <ele>198.65</ele>
        <time>2016-04-22T07:53:36Z</time>
      </trkpt>
      <trkpt lat="47.08388" lon="5.35621">
        <ele>198.65</ele>
        <time>2016-04-22T07:53:38Z</time>
      </trkpt>
      <trkpt lat="47.08388" lon="5.35632">
        <ele>199.13</ele>
        <time>2016-04-22T07:53:42Z</time>
      </trkpt>
      <trkpt lat="47.08382" lon="5.35657">
        <ele>199.13</ele>
        <time>2016-04-22T07:53:50Z</time>
      </trkpt>
      <trkpt lat="47.08378" lon="5.35684">
        <ele>197.21</ele>
        <time>2016-04-22T07:53:58Z</time>
      </trkpt>
      <trkpt lat="47.08373" lon="5.35709">
        <ele>195.77</ele>
        <time>2016-04-22T07:54:05Z</time>
      </trkpt>
      <trkpt lat="47.08368" lon="5.35741">
        <ele>194.32</ele>
        <time>2016-04-22T07:54:13Z</time>
      </trkpt>
      <trkpt lat="47.0836" lon="5.3576">
        <ele>193.84</ele>
        <time>2016-04-22T07:54:19Z</time>
      </trkpt>
      <trkpt lat="47.08341" lon="5.35794">
        <ele>192.88</ele>
        <time>2016-04-22T07:54:31Z</time>
      </trkpt>
      <trkpt lat="47.08327" lon="5.35812">
        <ele>191.44</ele>
        <time>2016-04-22T07:54:39Z</time>
      </trkpt>
      <trkpt lat="47.08305" lon="5.35827">
        <ele>191.92</ele>
        <time>2016-04-22T07:54:49Z</time>
      </trkpt>
      <trkpt lat="47.08289" lon="5.35837">
        <ele>192.4</ele>
        <time>2016-04-22T07:54:56Z</time>
      </trkpt>
      <trkpt lat="47.08266" lon="5.35852">
        <ele>192.88</ele>
        <time>2016-04-22T07:55:06Z</time>
      </trkpt>
      <trkpt lat="47.08247" lon="5.35862">
        <ele>192.4</ele>
        <time>2016-04-22T07:55:13Z</time>
      </trkpt>
      <trkpt lat="47.08225" lon="5.35873">
        <ele>191.92</ele>
        <time>2016-04-22T07:55:21Z</time>
      </trkpt>
      <trkpt lat="47.08201" lon="5.35888">
        <ele>191.44</ele>
        <time>2016-04-22T07:55:31Z</time>
      </trkpt>
      <trkpt lat="47.08181" lon="5.359">
        <ele>191.44</ele>
        <time>2016-04-22T07:55:40Z</time>
      </trkpt>
      <trkpt lat="47.08165" lon="5.35911">
        <ele>192.88</ele>
        <time>2016-04-22T07:55:48Z</time>
      </trkpt>
      <trkpt lat="47.08146" lon="5.35924">
        <ele>195.28</ele>
        <time>2016-04-22T07:55:57Z</time>
      </trkpt>
      <trkpt lat="47.08132" lon="5.35935">
        <ele>197.69</ele>
        <time>2016-04-22T07:56:04Z</time>
      </trkpt>
      <trkpt lat="47.08113" lon="5.35944">
        <ele>200.57</ele>
        <time>2016-04-22T07:56:11Z</time>
      </trkpt>
      <trkpt lat="47.08091" lon="5.35958">
        <ele>204.42</ele>
        <time>2016-04-22T07:56:20Z</time>
      </trkpt>
      <trkpt lat="47.08068" lon="5.35967">
        <ele>204.42</ele>
        <time>2016-04-22T07:56:28Z</time>
      </trkpt>
      <trkpt lat="47.08049" lon="5.3598">
        <ele>205.38</ele>
        <time>2016-04-22T07:56:36Z</time>
      </trkpt>
      <trkpt lat="47.08027" lon="5.35994">
        <ele>207.3</ele>
        <time>2016-04-22T07:56:45Z</time>
      </trkpt>
      <trkpt lat="47.08011" lon="5.36004">
        <ele>206.34</ele>
        <time>2016-04-22T07:56:51Z</time>
      </trkpt>
      <trkpt lat="47.07994" lon="5.36015">
        <ele>210.19</ele>
        <time>2016-04-22T07:57:00Z</time>
      </trkpt>
      <trkpt lat="47.0798" lon="5.36025">
        <ele>214.03</ele>
        <time>2016-04-22T07:57:07Z</time>
      </trkpt>
      <trkpt lat="47.07966" lon="5.36036">
        <ele>219.32</ele>
        <time>2016-04-22T07:57:15Z</time>
      </trkpt>
      <trkpt lat="47.07951" lon="5.36047">
        <ele>225.57</ele>
        <time>2016-04-22T07:57:23Z</time>
      </trkpt>
      <trkpt lat="47.07935" lon="5.36059">
        <ele>231.81</ele>
        <time>2016-04-22T07:57:31Z</time>
      </trkpt>
      <trkpt lat="47.07918" lon="5.36068">
        <ele>234.7</ele>
        <time>2016-04-22T07:57:38Z</time>
      </trkpt>
      <trkpt lat="47.07895" lon="5.36079">
        <ele>234.7</ele>
        <time>2016-04-22T07:57:46Z</time>
      </trkpt>
      <trkpt lat="47.07874" lon="5.36094">
        <ele>233.26</ele>
        <time>2016-04-22T07:57:54Z</time>
      </trkpt>
      <trkpt lat="47.07858" lon="5.36104">
        <ele>231.81</ele>
        <time>2016-04-22T07:58:00Z</time>
      </trkpt>
      <trkpt lat="47.07842" lon="5.36113">
        <ele>230.85</ele>
        <time>2016-04-22T07:58:06Z</time>
      </trkpt>
      <trkpt lat="47.07825" lon="5.36123">
        <ele>230.85</ele>
        <time>2016-04-22T07:58:13Z</time>
      </trkpt>
      <trkpt lat="47.07806" lon="5.36134">
        <ele>230.85</ele>
        <time>2016-04-22T07:58:21Z</time>
      </trkpt>
      <trkpt lat="47.07785" lon="5.36147">
        <ele>230.37</ele>
        <time>2016-04-22T07:58:29Z</time>
      </trkpt>
      <trkpt lat="47.07768" lon="5.36158">
        <ele>229.89</ele>
        <time>2016-04-22T07:58:36Z</time>
      </trkpt>
      <trkpt lat="47.07747" lon="5.3617">
        <ele>227.49</ele>
        <time>2016-04-22T07:58:43Z</time>
      </trkpt>
      <trkpt lat="47.0772" lon="5.36185">
        <ele>218.36</ele>
        <time>2016-04-22T07:58:50Z</time>
      </trkpt>
      <trkpt lat="47.07691" lon="5.36199">
        <ele>208.26</ele>
        <time>2016-04-22T07:58:59Z</time>
      </trkpt>
      <trkpt lat="47.07675" lon="5.3621">
        <ele>206.34</ele>
        <time>2016-04-22T07:59:06Z</time>
      </trkpt>
      <trkpt lat="47.07661" lon="5.36218">
        <ele>205.38</ele>
        <time>2016-04-22T07:59:12Z</time>
      </trkpt>
      <trkpt lat="47.07639" lon="5.36233">
        <ele>204.9</ele>
        <time>2016-04-22T07:59:21Z</time>
      </trkpt>
      <trkpt lat="47.07618" lon="5.36249">
        <ele>203.94</ele>
        <time>2016-04-22T07:59:30Z</time>
      </trkpt>
      <trkpt lat="47.07606" lon="5.36256">
        <ele>204.9</ele>
        <time>2016-04-22T07:59:36Z</time>
      </trkpt>
      <trkpt lat="47.07584" lon="5.36272">
        <ele>205.86</ele>
        <time>2016-04-22T07:59:45Z</time>
      </trkpt>
      <trkpt lat="47.07565" lon="5.36283">
        <ele>208.74</ele>
        <time>2016-04-22T07:59:53Z</time>
      </trkpt>
      <trkpt lat="47.07542" lon="5.36294">
        <ele>210.19</ele>
        <time>2016-04-22T08:00:01Z</time>
      </trkpt>
      <trkpt lat="47.07526" lon="5.363">
        <ele>211.63</ele>
        <time>2016-04-22T08:00:07Z</time>
      </trkpt>
      <trkpt lat="47.07504" lon="5.36315">
        <ele>212.11</ele>
        <time>2016-04-22T08:00:16Z</time>
      </trkpt>
      <trkpt lat="47.07482" lon="5.36327">
        <ele>210.19</ele>
        <time>2016-04-22T08:00:23Z</time>
      </trkpt>
      <trkpt lat="47.07456" lon="5.36343">
        <ele>206.34</ele>
        <time>2016-04-22T08:00:32Z</time>
      </trkpt>
      <trkpt lat="47.07435" lon="5.36357">
        <ele>203.94</ele>
        <time>2016-04-22T08:00:40Z</time>
      </trkpt>
      <trkpt lat="47.07416" lon="5.36372">
        <ele>205.38</ele>
        <time>2016-04-22T08:00:49Z</time>
      </trkpt>
      <trkpt lat="47.07402" lon="5.36381">
        <ele>208.74</ele>
        <time>2016-04-22T08:00:56Z</time>
      </trkpt>
      <trkpt lat="47.07383" lon="5.36395">
        <ele>209.22</ele>
        <time>2016-04-22T08:01:04Z</time>
      </trkpt>
      <trkpt lat="47.07361" lon="5.36408">
        <ele>213.07</ele>
        <time>2016-04-22T08:01:14Z</time>
      </trkpt>
      <trkpt lat="47.07344" lon="5.36428">
        <ele>217.88</ele>
        <time>2016-04-22T08:01:22Z</time>
      </trkpt>
      <trkpt lat="47.07335" lon="5.36449">
        <ele>221.24</ele>
        <time>2016-04-22T08:01:29Z</time>
      </trkpt>
      <trkpt lat="47.07327" lon="5.36476">
        <ele>224.61</ele>
        <time>2016-04-22T08:01:38Z</time>
      </trkpt>
      <trkpt lat="47.07318" lon="5.36501">
        <ele>225.09</ele>
        <time>2016-04-22T08:01:46Z</time>
      </trkpt>
      <trkpt lat="47.07305" lon="5.36535">
        <ele>225.09</ele>
        <time>2016-04-22T08:01:54Z</time>
      </trkpt>
      <trkpt lat="47.07299" lon="5.36558">
        <ele>222.68</ele>
        <time>2016-04-22T08:02:00Z</time>
      </trkpt>
      <trkpt lat="47.07285" lon="5.36581">
        <ele>219.8</ele>
        <time>2016-04-22T08:02:07Z</time>
      </trkpt>
      <trkpt lat="47.07265" lon="5.36607">
        <ele>216.43</ele>
        <time>2016-04-22T08:02:15Z</time>
      </trkpt>
      <trkpt lat="47.07251" lon="5.36635">
        <ele>214.51</ele>
        <time>2016-04-22T08:02:23Z</time>
      </trkpt>
      <trkpt lat="47.07234" lon="5.36672">
        <ele>210.67</ele>
        <time>2016-04-22T08:02:32Z</time>
      </trkpt>
      <trkpt lat="47.07224" lon="5.36696">
        <ele>208.74</ele>
        <time>2016-04-22T08:02:39Z</time>
      </trkpt>
      <trkpt lat="47.07216" lon="5.36724">
        <ele>206.34</ele>
        <time>2016-04-22T08:02:47Z</time>
      </trkpt>
      <trkpt lat="47.07211" lon="5.36753">
        <ele>204.9</ele>
        <time>2016-04-22T08:02:54Z</time>
      </trkpt>
      <trkpt lat="47.072" lon="5.36781">
        <ele>202.01</ele>
        <time>2016-04-22T08:03:02Z</time>
      </trkpt>
      <trkpt lat="47.07193" lon="5.36804">
        <ele>200.09</ele>
        <time>2016-04-22T08:03:09Z</time>
      </trkpt>
      <trkpt lat="47.07185" lon="5.3683">
        <ele>198.65</ele>
        <time>2016-04-22T08:03:16Z</time>
      </trkpt>
      <trkpt lat="47.07177" lon="5.36871">
        <ele>194.32</ele>
        <time>2016-04-22T08:03:26Z</time>
      </trkpt>
      <trkpt lat="47.07166" lon="5.36901">
        <ele>192.88</ele>
        <time>2016-04-22T08:03:34Z</time>
      </trkpt>
      <trkpt lat="47.07155" lon="5.36934">
        <ele>191.92</ele>
        <time>2016-04-22T08:03:43Z</time>
      </trkpt>
      <trkpt lat="47.07148" lon="5.36957">
        <ele>191.92</ele>
        <time>2016-04-22T08:03:50Z</time>
      </trkpt>
      <trkpt lat="47.07141" lon="5.36982">
        <ele>192.4</ele>
        <time>2016-04-22T08:03:58Z</time>
      </trkpt>
      <trkpt lat="47.07137" lon="5.36994">
        <ele>192.4</ele>
        <time>2016-04-22T08:04:02Z</time>
      </trkpt>
      <trkpt lat="47.07146" lon="5.37005">
        <ele>192.4</ele>
        <time>2016-04-22T08:04:07Z</time>
      </trkpt>
      <trkpt lat="47.07163" lon="5.37017">
        <ele>191.92</ele>
        <time>2016-04-22T08:04:14Z</time>
      </trkpt>
      <trkpt lat="47.0718" lon="5.37029">
        <ele>190.96</ele>
        <time>2016-04-22T08:04:21Z</time>
      </trkpt>
      <trkpt lat="47.07197" lon="5.37041">
        <ele>189.52</ele>
        <time>2016-04-22T08:04:28Z</time>
      </trkpt>
      <trkpt lat="47.07217" lon="5.37056">
        <ele>188.08</ele>
        <time>2016-04-22T08:04:36Z</time>
      </trkpt>
      <trkpt lat="47.07233" lon="5.37069">
        <ele>187.59</ele>
        <time>2016-04-22T08:04:43Z</time>
      </trkpt>
      <trkpt lat="47.07249" lon="5.3708">
        <ele>187.59</ele>
        <time>2016-04-22T08:04:50Z</time>
      </trkpt>
      <trkpt lat="47.07259" lon="5.37087">
        <ele>188.08</ele>
        <time>2016-04-22T08:04:54Z</time>
      </trkpt>
      <trkpt lat="47.07275" lon="5.37097">
        <ele>188.56</ele>
        <time>2016-04-22T08:05:01Z</time>
      </trkpt>
      <trkpt lat="47.0729" lon="5.37105">
        <ele>188.56</ele>
        <time>2016-04-22T08:05:07Z</time>
      </trkpt>
      <trkpt lat="47.07302" lon="5.37114">
        <ele>188.56</ele>
        <time>2016-04-22T08:05:13Z</time>
      </trkpt>
      <trkpt lat="47.0732" lon="5.37132">
        <ele>188.56</ele>
        <time>2016-04-22T08:05:21Z</time>
      </trkpt>
      <trkpt lat="47.07338" lon="5.3715">
        <ele>189.52</ele>
        <time>2016-04-22T08:05:29Z</time>
      </trkpt>
      <trkpt lat="47.07346" lon="5.37166">
        <ele>190</ele>
        <time>2016-04-22T08:05:34Z</time>
      </trkpt>
      <trkpt lat="47.0736" lon="5.37185">
        <ele>190</ele>
        <time>2016-04-22T08:05:41Z</time>
      </trkpt>
      <trkpt lat="47.07371" lon="5.37202">
        <ele>190.96</ele>
        <time>2016-04-22T08:05:47Z</time>
      </trkpt>
      <trkpt lat="47.07384" lon="5.37223">
        <ele>191.92</ele>
        <time>2016-04-22T08:05:54Z</time>
      </trkpt>
      <trkpt lat="47.07389" lon="5.37233">
        <ele>192.4</ele>
        <time>2016-04-22T08:05:57Z</time>
      </trkpt>
      <trkpt lat="47.07398" lon="5.37248">
        <ele>192.4</ele>
        <time>2016-04-22T08:06:02Z</time>
      </trkpt>
      <trkpt lat="47.07404" lon="5.3726">
        <ele>192.4</ele>
        <time>2016-04-22T08:06:06Z</time>
      </trkpt>
      <trkpt lat="47.07416" lon="5.37285">
        <ele>193.84</ele>
        <time>2016-04-22T08:06:14Z</time>
      </trkpt>
      <trkpt lat="47.07423" lon="5.3731">
        <ele>193.84</ele>
        <time>2016-04-22T08:06:21Z</time>
      </trkpt>
      <trkpt lat="47.07424" lon="5.37314">
        <ele>193.84</ele>
        <time>2016-04-22T08:06:22Z</time>
      </trkpt>
      <trkpt lat="47.07429" lon="5.37326">
        <ele>193.84</ele>
        <time>2016-04-22T08:06:26Z</time>
      </trkpt>
      <trkpt lat="47.07436" lon="5.37356">
        <ele>193.36</ele>
        <time>2016-04-22T08:06:34Z</time>
      </trkpt>
      <trkpt lat="47.07449" lon="5.37388">
        <ele>193.36</ele>
        <time>2016-04-22T08:06:42Z</time>
      </trkpt>
      <trkpt lat="47.07455" lon="5.37411">
        <ele>193.36</ele>
        <time>2016-04-22T08:06:48Z</time>
      </trkpt>
      <trkpt lat="47.0746" lon="5.37441">
        <ele>193.84</ele>
        <time>2016-04-22T08:06:55Z</time>
      </trkpt>
      <trkpt lat="47.07463" lon="5.37465">
        <ele>193.84</ele>
        <time>2016-04-22T08:07:02Z</time>
      </trkpt>
      <trkpt lat="47.07468" lon="5.37497">
        <ele>194.32</ele>
        <time>2016-04-22T08:07:10Z</time>
      </trkpt>
      <trkpt lat="47.07472" lon="5.3753">
        <ele>195.77</ele>
        <time>2016-04-22T08:07:18Z</time>
      </trkpt>
      <trkpt lat="47.07474" lon="5.37558">
        <ele>194.8</ele>
        <time>2016-04-22T08:07:25Z</time>
      </trkpt>
      <trkpt lat="47.07474" lon="5.37586">
        <ele>194.32</ele>
        <time>2016-04-22T08:07:32Z</time>
      </trkpt>
      <trkpt lat="47.07478" lon="5.37622">
        <ele>194.32</ele>
        <time>2016-04-22T08:07:41Z</time>
      </trkpt>
      <trkpt lat="47.0748" lon="5.37641">
        <ele>194.8</ele>
        <time>2016-04-22T08:07:47Z</time>
      </trkpt>
      <trkpt lat="47.07484" lon="5.37666">
        <ele>195.28</ele>
        <time>2016-04-22T08:07:53Z</time>
      </trkpt>
      <trkpt lat="47.07489" lon="5.37698">
        <ele>195.28</ele>
        <time>2016-04-22T08:08:01Z</time>
      </trkpt>
      <trkpt lat="47.07494" lon="5.37723">
        <ele>196.25</ele>
        <time>2016-04-22T08:08:08Z</time>
      </trkpt>
      <trkpt lat="47.07501" lon="5.37758">
        <ele>197.69</ele>
        <time>2016-04-22T08:08:16Z</time>
      </trkpt>
      <trkpt lat="47.07503" lon="5.37795">
        <ele>198.65</ele>
        <time>2016-04-22T08:08:25Z</time>
      </trkpt>
      <trkpt lat="47.07508" lon="5.37825">
        <ele>199.61</ele>
        <time>2016-04-22T08:08:32Z</time>
      </trkpt>
      <trkpt lat="47.0751" lon="5.37853">
        <ele>201.53</ele>
        <time>2016-04-22T08:08:39Z</time>
      </trkpt>
      <trkpt lat="47.07515" lon="5.37884">
        <ele>203.94</ele>
        <time>2016-04-22T08:08:47Z</time>
      </trkpt>
      <trkpt lat="47.07519" lon="5.37913">
        <ele>206.82</ele>
        <time>2016-04-22T08:08:54Z</time>
      </trkpt>
      <trkpt lat="47.07525" lon="5.37942">
        <ele>210.19</ele>
        <time>2016-04-22T08:09:01Z</time>
      </trkpt>
      <trkpt lat="47.07527" lon="5.37968">
        <ele>214.03</ele>
        <time>2016-04-22T08:09:08Z</time>
      </trkpt>
      <trkpt lat="47.0753" lon="5.37989">
        <ele>217.4</ele>
        <time>2016-04-22T08:09:13Z</time>
      </trkpt>
      <trkpt lat="47.07538" lon="5.3802">
        <ele>224.12</ele>
        <time>2016-04-22T08:09:21Z</time>
      </trkpt>
      <trkpt lat="47.07545" lon="5.38049">
        <ele>232.3</ele>
        <time>2016-04-22T08:09:29Z</time>
      </trkpt>
      <trkpt lat="47.07554" lon="5.38078">
        <ele>239.99</ele>
        <time>2016-04-22T08:09:37Z</time>
      </trkpt>
      <trkpt lat="47.07563" lon="5.38104">
        <ele>244.79</ele>
        <time>2016-04-22T08:09:44Z</time>
      </trkpt>
      <trkpt lat="47.07568" lon="5.38142">
        <ele>244.79</ele>
        <time>2016-04-22T08:09:53Z</time>
      </trkpt>
      <trkpt lat="47.07569" lon="5.38146">
        <ele>244.79</ele>
        <time>2016-04-22T08:09:54Z</time>
      </trkpt>
      <trkpt lat="47.07572" lon="5.38173">
        <ele>244.79</ele>
        <time>2016-04-22T08:10:01Z</time>
      </trkpt>
      <trkpt lat="47.07576" lon="5.38201">
        <ele>243.83</ele>
        <time>2016-04-22T08:10:08Z</time>
      </trkpt>
      <trkpt lat="47.0758" lon="5.38235">
        <ele>243.83</ele>
        <time>2016-04-22T08:10:16Z</time>
      </trkpt>
      <trkpt lat="47.07583" lon="5.38258">
        <ele>243.35</ele>
        <time>2016-04-22T08:10:22Z</time>
      </trkpt>
      <trkpt lat="47.07586" lon="5.38284">
        <ele>243.35</ele>
        <time>2016-04-22T08:10:28Z</time>
      </trkpt>
      <trkpt lat="47.0759" lon="5.38313">
        <ele>242.87</ele>
        <time>2016-04-22T08:10:35Z</time>
      </trkpt>
      <trkpt lat="47.07594" lon="5.38342">
        <ele>242.39</ele>
        <time>2016-04-22T08:10:42Z</time>
      </trkpt>
      <trkpt lat="47.07595" lon="5.38371">
        <ele>241.91</ele>
        <time>2016-04-22T08:10:50Z</time>
      </trkpt>
      <trkpt lat="47.07601" lon="5.38397">
        <ele>241.91</ele>
        <time>2016-04-22T08:10:56Z</time>
      </trkpt>
      <trkpt lat="47.07603" lon="5.38427">
        <ele>241.91</ele>
        <time>2016-04-22T08:11:03Z</time>
      </trkpt>
      <trkpt lat="47.0761" lon="5.3847">
        <ele>241.43</ele>
        <time>2016-04-22T08:11:13Z</time>
      </trkpt>
      <trkpt lat="47.07612" lon="5.38492">
        <ele>241.43</ele>
        <time>2016-04-22T08:11:19Z</time>
      </trkpt>
      <trkpt lat="47.07614" lon="5.38522">
        <ele>240.95</ele>
        <time>2016-04-22T08:11:26Z</time>
      </trkpt>
      <trkpt lat="47.07619" lon="5.38561">
        <ele>240.95</ele>
        <time>2016-04-22T08:11:35Z</time>
      </trkpt>
      <trkpt lat="47.07619" lon="5.38588">
        <ele>240.95</ele>
        <time>2016-04-22T08:11:43Z</time>
      </trkpt>
      <trkpt lat="47.07621" lon="5.38609">
        <ele>240.47</ele>
        <time>2016-04-22T08:11:48Z</time>
      </trkpt>
      <trkpt lat="47.07625" lon="5.38643">
        <ele>240.47</ele>
        <time>2016-04-22T08:11:56Z</time>
      </trkpt>
      <trkpt lat="47.07627" lon="5.3867">
        <ele>239.99</ele>
        <time>2016-04-22T08:12:03Z</time>
      </trkpt>
      <trkpt lat="47.0763" lon="5.38694">
        <ele>239.51</ele>
        <time>2016-04-22T08:12:09Z</time>
      </trkpt>
      <trkpt lat="47.07633" lon="5.38714">
        <ele>239.02</ele>
        <time>2016-04-22T08:12:14Z</time>
      </trkpt>
      <trkpt lat="47.07635" lon="5.38726">
        <ele>238.54</ele>
        <time>2016-04-22T08:12:17Z</time>
      </trkpt>
      <trkpt lat="47.0764" lon="5.38754">
        <ele>238.06</ele>
        <time>2016-04-22T08:12:24Z</time>
      </trkpt>
      <trkpt lat="47.07642" lon="5.38765">
        <ele>237.58</ele>
        <time>2016-04-22T08:12:27Z</time>
      </trkpt>
      <trkpt lat="47.07651" lon="5.38792">
        <ele>237.1</ele>
        <time>2016-04-22T08:12:34Z</time>
      </trkpt>
      <trkpt lat="47.07657" lon="5.38809">
        <ele>236.62</ele>
        <time>2016-04-22T08:12:39Z</time>
      </trkpt>
      <trkpt lat="47.07667" lon="5.38835">
        <ele>236.14</ele>
        <time>2016-04-22T08:12:46Z</time>
      </trkpt>
      <trkpt lat="47.07679" lon="5.38862">
        <ele>235.66</ele>
        <time>2016-04-22T08:12:54Z</time>
      </trkpt>
      <trkpt lat="47.07692" lon="5.38894">
        <ele>235.18</ele>
        <time>2016-04-22T08:13:03Z</time>
      </trkpt>
      <trkpt lat="47.07701" lon="5.38915">
        <ele>234.7</ele>
        <time>2016-04-22T08:13:09Z</time>
      </trkpt>
      <trkpt lat="47.07712" lon="5.38939">
        <ele>234.22</ele>
        <time>2016-04-22T08:13:16Z</time>
      </trkpt>
      <trkpt lat="47.07721" lon="5.38958">
        <ele>233.74</ele>
        <time>2016-04-22T08:13:22Z</time>
      </trkpt>
      <trkpt lat="47.07732" lon="5.38982">
        <ele>233.74</ele>
        <time>2016-04-22T08:13:29Z</time>
      </trkpt>
      <trkpt lat="47.07742" lon="5.39006">
        <ele>233.74</ele>
        <time>2016-04-22T08:13:36Z</time>
      </trkpt>
      <trkpt lat="47.07749" lon="5.39029">
        <ele>232.3</ele>
        <time>2016-04-22T08:13:43Z</time>
      </trkpt>
      <trkpt lat="47.07757" lon="5.39051">
        <ele>232.3</ele>
        <time>2016-04-22T08:13:49Z</time>
      </trkpt>
      <trkpt lat="47.07759" lon="5.39077">
        <ele>225.57</ele>
        <time>2016-04-22T08:13:56Z</time>
      </trkpt>
      <trkpt lat="47.07763" lon="5.39104">
        <ele>220.76</ele>
        <time>2016-04-22T08:14:03Z</time>
      </trkpt>
      <trkpt lat="47.0777" lon="5.3913">
        <ele>222.2</ele>
        <time>2016-04-22T08:14:10Z</time>
      </trkpt>
      <trkpt lat="47.07771" lon="5.39158">
        <ele>221.72</ele>
        <time>2016-04-22T08:14:17Z</time>
      </trkpt>
      <trkpt lat="47.07766" lon="5.39194">
        <ele>222.2</ele>
        <time>2016-04-22T08:14:26Z</time>
      </trkpt>
      <trkpt lat="47.07762" lon="5.39222">
        <ele>222.2</ele>
        <time>2016-04-22T08:14:33Z</time>
      </trkpt>
      <trkpt lat="47.07751" lon="5.39249">
        <ele>217.88</ele>
        <time>2016-04-22T08:14:40Z</time>
      </trkpt>
      <trkpt lat="47.07746" lon="5.39274">
        <ele>216.43</ele>
        <time>2016-04-22T08:14:47Z</time>
      </trkpt>
      <trkpt lat="47.0774" lon="5.39299">
        <ele>214.03</ele>
        <time>2016-04-22T08:14:53Z</time>
      </trkpt>
      <trkpt lat="47.07736" lon="5.39332">
        <ele>210.19</ele>
        <time>2016-04-22T08:15:00Z</time>
      </trkpt>
      <trkpt lat="47.07732" lon="5.39357">
        <ele>209.7</ele>
        <time>2016-04-22T08:15:06Z</time>
      </trkpt>
      <trkpt lat="47.07726" lon="5.39395">
        <ele>210.67</ele>
        <time>2016-04-22T08:15:15Z</time>
      </trkpt>
      <trkpt lat="47.07721" lon="5.39432">
        <ele>211.15</ele>
        <time>2016-04-22T08:15:24Z</time>
      </trkpt>
      <trkpt lat="47.07717" lon="5.39461">
        <ele>211.15</ele>
        <time>2016-04-22T08:15:31Z</time>
      </trkpt>
      <trkpt lat="47.07712" lon="5.39492">
        <ele>210.67</ele>
        <time>2016-04-22T08:15:39Z</time>
      </trkpt>
      <trkpt lat="47.07708" lon="5.3952">
        <ele>209.7</ele>
        <time>2016-04-22T08:15:46Z</time>
      </trkpt>
      <trkpt lat="47.07706" lon="5.39553">
        <ele>210.67</ele>
        <time>2016-04-22T08:15:54Z</time>
      </trkpt>
      <trkpt lat="47.07702" lon="5.39582">
        <ele>209.7</ele>
        <time>2016-04-22T08:16:01Z</time>
      </trkpt>
      <trkpt lat="47.07699" lon="5.39617">
        <ele>207.3</ele>
        <time>2016-04-22T08:16:10Z</time>
      </trkpt>
      <trkpt lat="47.07696" lon="5.39643">
        <ele>205.86</ele>
        <time>2016-04-22T08:16:17Z</time>
      </trkpt>
      <trkpt lat="47.07695" lon="5.39666">
        <ele>205.38</ele>
        <time>2016-04-22T08:16:23Z</time>
      </trkpt>
      <trkpt lat="47.07694" lon="5.39698">
        <ele>204.9</ele>
        <time>2016-04-22T08:16:31Z</time>
      </trkpt>
      <trkpt lat="47.07692" lon="5.39725">
        <ele>204.9</ele>
        <time>2016-04-22T08:16:38Z</time>
      </trkpt>
      <trkpt lat="47.07691" lon="5.3973">
        <ele>204.42</ele>
        <time>2016-04-22T08:16:42Z</time>
      </trkpt>
      <trkpt lat="47.07688" lon="5.39757">
        <ele>204.42</ele>
        <time>2016-04-22T08:16:49Z</time>
      </trkpt>
      <trkpt lat="47.07685" lon="5.39783">
        <ele>204.42</ele>
        <time>2016-04-22T08:16:55Z</time>
      </trkpt>
      <trkpt lat="47.0768" lon="5.39813">
        <ele>203.94</ele>
        <time>2016-04-22T08:17:03Z</time>
      </trkpt>
      <trkpt lat="47.07676" lon="5.39839">
        <ele>204.42</ele>
        <time>2016-04-22T08:17:10Z</time>
      </trkpt>
      <trkpt lat="47.07673" lon="5.39866">
        <ele>203.94</ele>
        <time>2016-04-22T08:17:17Z</time>
      </trkpt>
      <trkpt lat="47.07669" lon="5.39895">
        <ele>203.46</ele>
        <time>2016-04-22T08:17:24Z</time>
      </trkpt>
      <trkpt lat="47.07665" lon="5.39923">
        <ele>202.01</ele>
        <time>2016-04-22T08:17:31Z</time>
      </trkpt>
      <trkpt lat="47.07662" lon="5.39955">
        <ele>202.49</ele>
        <time>2016-04-22T08:17:39Z</time>
      </trkpt>
      <trkpt lat="47.07659" lon="5.39978">
        <ele>203.46</ele>
        <time>2016-04-22T08:17:45Z</time>
      </trkpt>
      <trkpt lat="47.07656" lon="5.39999">
        <ele>204.9</ele>
        <time>2016-04-22T08:17:51Z</time>
      </trkpt>
      <trkpt lat="47.07655" lon="5.40036">
        <ele>204.9</ele>
        <time>2016-04-22T08:18:00Z</time>
      </trkpt>
      <trkpt lat="47.0765" lon="5.40067">
        <ele>204.42</ele>
        <time>2016-04-22T08:18:08Z</time>
      </trkpt>
      <trkpt lat="47.07646" lon="5.40094">
        <ele>203.94</ele>
        <time>2016-04-22T08:18:15Z</time>
      </trkpt>
      <trkpt lat="47.07644" lon="5.40124">
        <ele>202.98</ele>
        <time>2016-04-22T08:18:22Z</time>
      </trkpt>
      <trkpt lat="47.07639" lon="5.40156">
        <ele>202.01</ele>
        <time>2016-04-22T08:18:30Z</time>
      </trkpt>
      <trkpt lat="47.07635" lon="5.40183">
        <ele>202.49</ele>
        <time>2016-04-22T08:18:37Z</time>
      </trkpt>
      <trkpt lat="47.07629" lon="5.4021">
        <ele>202.98</ele>
        <time>2016-04-22T08:18:44Z</time>
      </trkpt>
      <trkpt lat="47.07626" lon="5.40239">
        <ele>203.46</ele>
        <time>2016-04-22T08:18:51Z</time>
      </trkpt>
      <trkpt lat="47.07623" lon="5.4027">
        <ele>203.46</ele>
        <time>2016-04-22T08:18:59Z</time>
      </trkpt>
      <trkpt lat="47.0762" lon="5.40299">
        <ele>202.98</ele>
        <time>2016-04-22T08:19:06Z</time>
      </trkpt>
      <trkpt lat="47.07618" lon="5.40327">
        <ele>202.49</ele>
        <time>2016-04-22T08:19:13Z</time>
      </trkpt>
      <trkpt lat="47.07615" lon="5.40353">
        <ele>202.49</ele>
        <time>2016-04-22T08:19:20Z</time>
      </trkpt>
      <trkpt lat="47.07611" lon="5.40382">
        <ele>202.01</ele>
        <time>2016-04-22T08:19:27Z</time>
      </trkpt>
      <trkpt lat="47.076" lon="5.40417">
        <ele>202.01</ele>
        <time>2016-04-22T08:19:36Z</time>
      </trkpt>
      <trkpt lat="47.07595" lon="5.40446">
        <ele>202.01</ele>
        <time>2016-04-22T08:19:43Z</time>
      </trkpt>
      <trkpt lat="47.07591" lon="5.40476">
        <ele>201.53</ele>
        <time>2016-04-22T08:19:50Z</time>
      </trkpt>
      <trkpt lat="47.07586" lon="5.405">
        <ele>200.57</ele>
        <time>2016-04-22T08:19:56Z</time>
      </trkpt>
      <trkpt lat="47.07577" lon="5.4053">
        <ele>199.61</ele>
        <time>2016-04-22T08:20:04Z</time>
      </trkpt>
      <trkpt lat="47.07573" lon="5.40558">
        <ele>198.65</ele>
        <time>2016-04-22T08:20:11Z</time>
      </trkpt>
      <trkpt lat="47.07568" lon="5.40586">
        <ele>197.69</ele>
        <time>2016-04-22T08:20:18Z</time>
      </trkpt>
      <trkpt lat="47.07563" lon="5.40613">
        <ele>198.17</ele>
        <time>2016-04-22T08:20:25Z</time>
      </trkpt>
      <trkpt lat="47.07558" lon="5.40642">
        <ele>198.65</ele>
        <time>2016-04-22T08:20:32Z</time>
      </trkpt>
      <trkpt lat="47.07552" lon="5.40668">
        <ele>199.61</ele>
        <time>2016-04-22T08:20:39Z</time>
      </trkpt>
      <trkpt lat="47.07547" lon="5.40687">
        <ele>200.09</ele>
        <time>2016-04-22T08:20:45Z</time>
      </trkpt>
      <trkpt lat="47.07545" lon="5.40703">
        <ele>200.57</ele>
        <time>2016-04-22T08:20:49Z</time>
      </trkpt>
      <trkpt lat="47.07543" lon="5.40736">
        <ele>202.49</ele>
        <time>2016-04-22T08:20:58Z</time>
      </trkpt>
      <trkpt lat="47.07541" lon="5.40757">
        <ele>203.46</ele>
        <time>2016-04-22T08:21:04Z</time>
      </trkpt>
      <trkpt lat="47.07537" lon="5.40789">
        <ele>204.42</ele>
        <time>2016-04-22T08:21:12Z</time>
      </trkpt>
      <trkpt lat="47.0753" lon="5.40809">
        <ele>205.86</ele>
        <time>2016-04-22T08:21:18Z</time>
      </trkpt>
      <trkpt lat="47.07524" lon="5.40832">
        <ele>206.82</ele>
        <time>2016-04-22T08:21:25Z</time>
      </trkpt>
      <trkpt lat="47.07512" lon="5.40854">
        <ele>206.82</ele>
        <time>2016-04-22T08:21:32Z</time>
      </trkpt>
      <trkpt lat="47.07495" lon="5.40882">
        <ele>204.42</ele>
        <time>2016-04-22T08:21:40Z</time>
      </trkpt>
      <trkpt lat="47.07484" lon="5.40901">
        <ele>202.01</ele>
        <time>2016-04-22T08:21:46Z</time>
      </trkpt>
      <trkpt lat="47.07474" lon="5.40919">
        <ele>200.09</ele>
        <time>2016-04-22T08:21:52Z</time>
      </trkpt>
      <trkpt lat="47.07466" lon="5.40939">
        <ele>200.57</ele>
        <time>2016-04-22T08:21:57Z</time>
      </trkpt>
      <trkpt lat="47.07462" lon="5.4097">
        <ele>202.01</ele>
        <time>2016-04-22T08:22:05Z</time>
      </trkpt>
      <trkpt lat="47.07456" lon="5.40996">
        <ele>202.01</ele>
        <time>2016-04-22T08:22:12Z</time>
      </trkpt>
      <trkpt lat="47.07451" lon="5.41019">
        <ele>202.98</ele>
        <time>2016-04-22T08:22:18Z</time>
      </trkpt>
      <trkpt lat="47.0745" lon="5.41027">
        <ele>202.49</ele>
        <time>2016-04-22T08:22:20Z</time>
      </trkpt>
      <trkpt lat="47.0746" lon="5.41048">
        <ele>203.46</ele>
        <time>2016-04-22T08:22:28Z</time>
      </trkpt>
      <trkpt lat="47.07476" lon="5.41064">
        <ele>204.42</ele>
        <time>2016-04-22T08:22:35Z</time>
      </trkpt>
      <trkpt lat="47.07488" lon="5.41075">
        <ele>205.38</ele>
        <time>2016-04-22T08:22:41Z</time>
      </trkpt>
      <trkpt lat="47.07503" lon="5.41087">
        <ele>205.86</ele>
        <time>2016-04-22T08:22:48Z</time>
      </trkpt>
      <trkpt lat="47.07521" lon="5.41101">
        <ele>207.3</ele>
        <time>2016-04-22T08:22:56Z</time>
      </trkpt>
      <trkpt lat="47.07537" lon="5.41119">
        <ele>208.26</ele>
        <time>2016-04-22T08:23:04Z</time>
      </trkpt>
      <trkpt lat="47.07549" lon="5.41136">
        <ele>207.78</ele>
        <time>2016-04-22T08:23:10Z</time>
      </trkpt>
      <trkpt lat="47.07554" lon="5.41145">
        <ele>208.26</ele>
        <time>2016-04-22T08:23:13Z</time>
      </trkpt>
      <trkpt lat="47.0756" lon="5.41158">
        <ele>208.74</ele>
        <time>2016-04-22T08:23:17Z</time>
      </trkpt>
      <trkpt lat="47.07576" lon="5.41182">
        <ele>210.67</ele>
        <time>2016-04-22T08:23:26Z</time>
      </trkpt>
      <trkpt lat="47.07589" lon="5.41198">
        <ele>212.11</ele>
        <time>2016-04-22T08:23:33Z</time>
      </trkpt>
      <trkpt lat="47.07605" lon="5.41216">
        <ele>212.11</ele>
        <time>2016-04-22T08:23:40Z</time>
      </trkpt>
      <trkpt lat="47.0762" lon="5.41236">
        <ele>212.11</ele>
        <time>2016-04-22T08:23:47Z</time>
      </trkpt>
      <trkpt lat="47.07637" lon="5.41251">
        <ele>210.67</ele>
        <time>2016-04-22T08:23:54Z</time>
      </trkpt>
      <trkpt lat="47.07655" lon="5.41265">
        <ele>209.22</ele>
        <time>2016-04-22T08:24:01Z</time>
      </trkpt>
      <trkpt lat="47.07674" lon="5.4128">
        <ele>206.82</ele>
        <time>2016-04-22T08:24:09Z</time>
      </trkpt>
      <trkpt lat="47.07688" lon="5.41293">
        <ele>206.82</ele>
        <time>2016-04-22T08:24:15Z</time>
      </trkpt>
      <trkpt lat="47.07701" lon="5.41307">
        <ele>206.82</ele>
        <time>2016-04-22T08:24:21Z</time>
      </trkpt>
      <trkpt lat="47.07715" lon="5.41323">
        <ele>206.34</ele>
        <time>2016-04-22T08:24:27Z</time>
      </trkpt>
      <trkpt lat="47.07725" lon="5.4134">
        <ele>205.86</ele>
        <time>2016-04-22T08:24:33Z</time>
      </trkpt>
      <trkpt lat="47.07729" lon="5.41362">
        <ele>206.34</ele>
        <time>2016-04-22T08:24:39Z</time>
      </trkpt>
      <trkpt lat="47.07722" lon="5.41384">
        <ele>207.3</ele>
        <time>2016-04-22T08:24:46Z</time>
      </trkpt>
      <trkpt lat="47.07714" lon="5.41402">
        <ele>207.78</ele>
        <time>2016-04-22T08:24:52Z</time>
      </trkpt>
      <trkpt lat="47.07703" lon="5.41423">
        <ele>209.7</ele>
        <time>2016-04-22T08:25:00Z</time>
      </trkpt>
      <trkpt lat="47.07695" lon="5.41436">
        <ele>211.15</ele>
        <time>2016-04-22T08:25:05Z</time>
      </trkpt>
      <trkpt lat="47.07685" lon="5.41455">
        <ele>213.07</ele>
        <time>2016-04-22T08:25:13Z</time>
      </trkpt>
      <trkpt lat="47.07677" lon="5.41467">
        <ele>214.03</ele>
        <time>2016-04-22T08:25:18Z</time>
      </trkpt>
      <trkpt lat="47.07666" lon="5.41481">
        <ele>216.43</ele>
        <time>2016-04-22T08:25:25Z</time>
      </trkpt>
      <trkpt lat="47.07663" lon="5.41486">
        <ele>216.91</ele>
        <time>2016-04-22T08:25:27Z</time>
      </trkpt>
      <trkpt lat="47.07649" lon="5.41495">
        <ele>217.4</ele>
        <time>2016-04-22T08:25:34Z</time>
      </trkpt>
      <trkpt lat="47.07645" lon="5.41497">
        <ele>217.88</ele>
        <time>2016-04-22T08:25:36Z</time>
      </trkpt>
      <trkpt lat="47.07625" lon="5.41498">
        <ele>219.8</ele>
        <time>2016-04-22T08:25:44Z</time>
      </trkpt>
      <trkpt lat="47.07609" lon="5.41499">
        <ele>221.72</ele>
        <time>2016-04-22T08:25:51Z</time>
      </trkpt>
      <trkpt lat="47.07598" lon="5.41505">
        <ele>222.68</ele>
        <time>2016-04-22T08:25:56Z</time>
      </trkpt>
      <trkpt lat="47.07592" lon="5.41511">
        <ele>223.16</ele>
        <time>2016-04-22T08:25:59Z</time>
      </trkpt>
      <trkpt lat="47.07583" lon="5.41534">
        <ele>224.12</ele>
        <time>2016-04-22T08:26:07Z</time>
      </trkpt>
      <trkpt lat="47.07575" lon="5.41555">
        <ele>224.61</ele>
        <time>2016-04-22T08:26:14Z</time>
      </trkpt>
      <trkpt lat="47.07566" lon="5.41572">
        <ele>225.09</ele>
        <time>2016-04-22T08:26:20Z</time>
      </trkpt>
      <trkpt lat="47.07555" lon="5.41593">
        <ele>226.05</ele>
        <time>2016-04-22T08:26:27Z</time>
      </trkpt>
      <trkpt lat="47.07543" lon="5.41618">
        <ele>226.05</ele>
        <time>2016-04-22T08:26:35Z</time>
      </trkpt>
      <trkpt lat="47.07534" lon="5.41641">
        <ele>225.09</ele>
        <time>2016-04-22T08:26:42Z</time>
      </trkpt>
      <trkpt lat="47.0752" lon="5.41668">
        <ele>223.16</ele>
        <time>2016-04-22T08:26:51Z</time>
      </trkpt>
      <trkpt lat="47.0751" lon="5.41685">
        <ele>221.72</ele>
        <time>2016-04-22T08:26:57Z</time>
      </trkpt>
      <trkpt lat="47.07498" lon="5.41706">
        <ele>222.2</ele>
        <time>2016-04-22T08:27:04Z</time>
      </trkpt>
      <trkpt lat="47.07489" lon="5.41734">
        <ele>222.2</ele>
        <time>2016-04-22T08:27:12Z</time>
      </trkpt>
      <trkpt lat="47.07484" lon="5.41769">
        <ele>222.2</ele>
        <time>2016-04-22T08:27:21Z</time>
      </trkpt>
      <trkpt lat="47.07481" lon="5.41803">
        <ele>222.68</ele>
        <time>2016-04-22T08:27:30Z</time>
      </trkpt>
      <trkpt lat="47.07478" lon="5.41833">
        <ele>224.12</ele>
        <time>2016-04-22T08:27:38Z</time>
      </trkpt>
      <trkpt lat="47.07478" lon="5.41863">
        <ele>224.61</ele>
        <time>2016-04-22T08:27:46Z</time>
      </trkpt>
      <trkpt lat="47.07482" lon="5.41893">
        <ele>224.61</ele>
        <time>2016-04-22T08:27:54Z</time>
      </trkpt>
      <trkpt lat="47.07485" lon="5.41923">
        <ele>224.61</ele>
        <time>2016-04-22T08:28:02Z</time>
      </trkpt>
      <trkpt lat="47.0749" lon="5.41955">
        <ele>225.09</ele>
        <time>2016-04-22T08:28:11Z</time>
      </trkpt>
      <trkpt lat="47.07495" lon="5.41981">
        <ele>226.05</ele>
        <time>2016-04-22T08:28:18Z</time>
      </trkpt>
      <trkpt lat="47.07502" lon="5.42008">
        <ele>227.49</ele>
        <time>2016-04-22T08:28:26Z</time>
      </trkpt>
      <trkpt lat="47.0751" lon="5.42035">
        <ele>228.93</ele>
        <time>2016-04-22T08:28:34Z</time>
      </trkpt>
      <trkpt lat="47.0752" lon="5.42061">
        <ele>230.85</ele>
        <time>2016-04-22T08:28:42Z</time>
      </trkpt>
      <trkpt lat="47.07532" lon="5.42087">
        <ele>231.81</ele>
        <time>2016-04-22T08:28:51Z</time>
      </trkpt>
      <trkpt lat="47.07542" lon="5.4211">
        <ele>232.3</ele>
        <time>2016-04-22T08:28:58Z</time>
      </trkpt>
      <trkpt lat="47.07551" lon="5.42133">
        <ele>232.78</ele>
        <time>2016-04-22T08:29:05Z</time>
      </trkpt>
      <trkpt lat="47.07561" lon="5.42154">
        <ele>232.78</ele>
        <time>2016-04-22T08:29:12Z</time>
      </trkpt>
      <trkpt lat="47.07569" lon="5.42173">
        <ele>232.78</ele>
        <time>2016-04-22T08:29:18Z</time>
      </trkpt>
      <trkpt lat="47.07583" lon="5.42205">
        <ele>234.22</ele>
        <time>2016-04-22T08:29:28Z</time>
      </trkpt>
      <trkpt lat="47.07596" lon="5.42232">
        <ele>235.66</ele>
        <time>2016-04-22T08:29:37Z</time>
      </trkpt>
      <trkpt lat="47.07607" lon="5.42258">
        <ele>237.58</ele>
        <time>2016-04-22T08:29:45Z</time>
      </trkpt>
      <trkpt lat="47.07619" lon="5.42287">
        <ele>238.54</ele>
        <time>2016-04-22T08:29:54Z</time>
      </trkpt>
      <trkpt lat="47.07627" lon="5.42311">
        <ele>239.02</ele>
        <time>2016-04-22T08:30:01Z</time>
      </trkpt>
      <trkpt lat="47.07635" lon="5.42335">
        <ele>239.51</ele>
        <time>2016-04-22T08:30:08Z</time>
      </trkpt>
      <trkpt lat="47.07641" lon="5.42361">
        <ele>239.99</ele>
        <time>2016-04-22T08:30:15Z</time>
      </trkpt>
      <trkpt lat="47.07646" lon="5.42386">
        <ele>240.47</ele>
        <time>2016-04-22T08:30:22Z</time>
      </trkpt>
      <trkpt lat="47.07653" lon="5.42407">
        <ele>240.95</ele>
        <time>2016-04-22T08:30:28Z</time>
      </trkpt>
      <trkpt lat="47.07663" lon="5.42434">
        <ele>241.91</ele>
        <time>2016-04-22T08:30:36Z</time>
      </trkpt>
      <trkpt lat="47.07671" lon="5.42454">
        <ele>244.79</ele>
        <time>2016-04-22T08:30:42Z</time>
      </trkpt>
      <trkpt lat="47.07679" lon="5.42487">
        <ele>249.12</ele>
        <time>2016-04-22T08:30:52Z</time>
      </trkpt>
      <trkpt lat="47.0768" lon="5.42518">
        <ele>253.44</ele>
        <time>2016-04-22T08:31:00Z</time>
      </trkpt>
      <trkpt lat="47.07684" lon="5.42549">
        <ele>258.25</ele>
        <time>2016-04-22T08:31:07Z</time>
      </trkpt>
      <trkpt lat="47.07686" lon="5.42576">
        <ele>262.1</ele>
        <time>2016-04-22T08:31:14Z</time>
      </trkpt>
      <trkpt lat="47.07689" lon="5.42599">
        <ele>265.46</ele>
        <time>2016-04-22T08:31:20Z</time>
      </trkpt>
      <trkpt lat="47.07693" lon="5.42632">
        <ele>268.83</ele>
        <time>2016-04-22T08:31:27Z</time>
      </trkpt>
      <trkpt lat="47.07689" lon="5.42666">
        <ele>269.31</ele>
        <time>2016-04-22T08:31:35Z</time>
      </trkpt>
      <trkpt lat="47.0769" lon="5.42699">
        <ele>272.19</ele>
        <time>2016-04-22T08:31:43Z</time>
      </trkpt>
      <trkpt lat="47.07692" lon="5.42722">
        <ele>274.59</ele>
        <time>2016-04-22T08:31:50Z</time>
      </trkpt>
      <trkpt lat="47.07696" lon="5.42747">
        <ele>278.92</ele>
        <time>2016-04-22T08:31:57Z</time>
      </trkpt>
      <trkpt lat="47.07697" lon="5.42771">
        <ele>284.21</ele>
        <time>2016-04-22T08:32:04Z</time>
      </trkpt>
      <trkpt lat="47.07701" lon="5.428">
        <ele>290.46</ele>
        <time>2016-04-22T08:32:11Z</time>
      </trkpt>
      <trkpt lat="47.07704" lon="5.4283">
        <ele>296.22</ele>
        <time>2016-04-22T08:32:18Z</time>
      </trkpt>
      <trkpt lat="47.07711" lon="5.42858">
        <ele>299.59</ele>
        <time>2016-04-22T08:32:24Z</time>
      </trkpt>
      <trkpt lat="47.07717" lon="5.42895">
        <ele>299.59</ele>
        <time>2016-04-22T08:32:32Z</time>
      </trkpt>
      <trkpt lat="47.07718" lon="5.42925">
        <ele>297.18</ele>
        <time>2016-04-22T08:32:39Z</time>
      </trkpt>
      <trkpt lat="47.07715" lon="5.42956">
        <ele>293.34</ele>
        <time>2016-04-22T08:32:46Z</time>
      </trkpt>
      <trkpt lat="47.07713" lon="5.42982">
        <ele>290.46</ele>
        <time>2016-04-22T08:32:52Z</time>
      </trkpt>
      <trkpt lat="47.07714" lon="5.43016">
        <ele>287.09</ele>
        <time>2016-04-22T08:32:59Z</time>
      </trkpt>
      <trkpt lat="47.07713" lon="5.43047">
        <ele>279.4</ele>
        <time>2016-04-22T08:33:05Z</time>
      </trkpt>
      <trkpt lat="47.07717" lon="5.43077">
        <ele>277.48</ele>
        <time>2016-04-22T08:33:12Z</time>
      </trkpt>
      <trkpt lat="47.07716" lon="5.43104">
        <ele>274.11</ele>
        <time>2016-04-22T08:33:19Z</time>
      </trkpt>
      <trkpt lat="47.07719" lon="5.43137">
        <ele>270.75</ele>
        <time>2016-04-22T08:33:26Z</time>
      </trkpt>
      <trkpt lat="47.07718" lon="5.43163">
        <ele>268.83</ele>
        <time>2016-04-22T08:33:32Z</time>
      </trkpt>
      <trkpt lat="47.0772" lon="5.43188">
        <ele>267.86</ele>
        <time>2016-04-22T08:33:39Z</time>
      </trkpt>
      <trkpt lat="47.07721" lon="5.43217">
        <ele>270.75</ele>
        <time>2016-04-22T08:33:46Z</time>
      </trkpt>
      <trkpt lat="47.07719" lon="5.43242">
        <ele>274.11</ele>
        <time>2016-04-22T08:33:53Z</time>
      </trkpt>
      <trkpt lat="47.07723" lon="5.43272">
        <ele>279.4</ele>
        <time>2016-04-22T08:34:01Z</time>
      </trkpt>
      <trkpt lat="47.07727" lon="5.43299">
        <ele>278.44</ele>
        <time>2016-04-22T08:34:07Z</time>
      </trkpt>
      <trkpt lat="47.07723" lon="5.43328">
        <ele>274.11</ele>
        <time>2016-04-22T08:34:14Z</time>
      </trkpt>
      <trkpt lat="47.07723" lon="5.4336">
        <ele>270.75</ele>
        <time>2016-04-22T08:34:21Z</time>
      </trkpt>
      <trkpt lat="47.07726" lon="5.43393">
        <ele>269.31</ele>
        <time>2016-04-22T08:34:28Z</time>
      </trkpt>
      <trkpt lat="47.07731" lon="5.43426">
        <ele>266.42</ele>
        <time>2016-04-22T08:34:35Z</time>
      </trkpt>
      <trkpt lat="47.07736" lon="5.43458">
        <ele>264.02</ele>
        <time>2016-04-22T08:34:42Z</time>
      </trkpt>
      <trkpt lat="47.07743" lon="5.4349">
        <ele>262.1</ele>
        <time>2016-04-22T08:34:49Z</time>
      </trkpt>
      <trkpt lat="47.07753" lon="5.43526">
        <ele>262.1</ele>
        <time>2016-04-22T08:34:57Z</time>
      </trkpt>
      <trkpt lat="47.0776" lon="5.43555">
        <ele>262.58</ele>
        <time>2016-04-22T08:35:04Z</time>
      </trkpt>
      <trkpt lat="47.07765" lon="5.4358">
        <ele>262.1</ele>
        <time>2016-04-22T08:35:10Z</time>
      </trkpt>
      <trkpt lat="47.07766" lon="5.43601">
        <ele>262.58</ele>
        <time>2016-04-22T08:35:16Z</time>
      </trkpt>
      <trkpt lat="47.07766" lon="5.43613">
        <ele>262.58</ele>
        <time>2016-04-22T08:35:20Z</time>
      </trkpt>
      <trkpt lat="47.0777" lon="5.43647">
        <ele>257.77</ele>
        <time>2016-04-22T08:35:27Z</time>
      </trkpt>
      <trkpt lat="47.07776" lon="5.43672">
        <ele>250.08</ele>
        <time>2016-04-22T08:35:33Z</time>
      </trkpt>
      <trkpt lat="47.07782" lon="5.43701">
        <ele>247.2</ele>
        <time>2016-04-22T08:35:40Z</time>
      </trkpt>
      <trkpt lat="47.07786" lon="5.43719">
        <ele>246.23</ele>
        <time>2016-04-22T08:35:46Z</time>
      </trkpt>
      <trkpt lat="47.07787" lon="5.43741">
        <ele>245.27</ele>
        <time>2016-04-22T08:35:53Z</time>
      </trkpt>
      <trkpt lat="47.07797" lon="5.43779">
        <ele>244.31</ele>
        <time>2016-04-22T08:36:01Z</time>
      </trkpt>
      <trkpt lat="47.07804" lon="5.43812">
        <ele>241.43</ele>
        <time>2016-04-22T08:36:08Z</time>
      </trkpt>
      <trkpt lat="47.07812" lon="5.43843">
        <ele>240.47</ele>
        <time>2016-04-22T08:36:16Z</time>
      </trkpt>
      <trkpt lat="47.07814" lon="5.43868">
        <ele>238.54</ele>
        <time>2016-04-22T08:36:23Z</time>
      </trkpt>
      <trkpt lat="47.07816" lon="5.43892">
        <ele>237.1</ele>
        <time>2016-04-22T08:36:29Z</time>
      </trkpt>
      <trkpt lat="47.0782" lon="5.4392">
        <ele>236.14</ele>
        <time>2016-04-22T08:36:36Z</time>
      </trkpt>
      <trkpt lat="47.07824" lon="5.43953">
        <ele>234.7</ele>
        <time>2016-04-22T08:36:44Z</time>
      </trkpt>
      <trkpt lat="47.07828" lon="5.43986">
        <ele>231.33</ele>
        <time>2016-04-22T08:36:52Z</time>
      </trkpt>
      <trkpt lat="47.0783" lon="5.44014">
        <ele>229.41</ele>
        <time>2016-04-22T08:36:59Z</time>
      </trkpt>
      <trkpt lat="47.07833" lon="5.4405">
        <ele>227.97</ele>
        <time>2016-04-22T08:37:07Z</time>
      </trkpt>
      <trkpt lat="47.07837" lon="5.44078">
        <ele>227.97</ele>
        <time>2016-04-22T08:37:14Z</time>
      </trkpt>
      <trkpt lat="47.07841" lon="5.44105">
        <ele>226.05</ele>
        <time>2016-04-22T08:37:21Z</time>
      </trkpt>
      <trkpt lat="47.07842" lon="5.44126">
        <ele>225.57</ele>
        <time>2016-04-22T08:37:26Z</time>
      </trkpt>
      <trkpt lat="47.07846" lon="5.44159">
        <ele>224.61</ele>
        <time>2016-04-22T08:37:34Z</time>
      </trkpt>
      <trkpt lat="47.07847" lon="5.44189">
        <ele>224.61</ele>
        <time>2016-04-22T08:37:41Z</time>
      </trkpt>
      <trkpt lat="47.07849" lon="5.44214">
        <ele>224.12</ele>
        <time>2016-04-22T08:37:47Z</time>
      </trkpt>
      <trkpt lat="47.07851" lon="5.44247">
        <ele>224.61</ele>
        <time>2016-04-22T08:37:55Z</time>
      </trkpt>
      <trkpt lat="47.07853" lon="5.44275">
        <ele>225.09</ele>
        <time>2016-04-22T08:38:02Z</time>
      </trkpt>
      <trkpt lat="47.07856" lon="5.44299">
        <ele>225.57</ele>
        <time>2016-04-22T08:38:08Z</time>
      </trkpt>
      <trkpt lat="47.07856" lon="5.44312">
        <ele>225.57</ele>
        <time>2016-04-22T08:38:11Z</time>
      </trkpt>
      <trkpt lat="47.07853" lon="5.44336">
        <ele>224.61</ele>
        <time>2016-04-22T08:38:17Z</time>
      </trkpt>
      <trkpt lat="47.07854" lon="5.44361">
        <ele>223.64</ele>
        <time>2016-04-22T08:38:23Z</time>
      </trkpt>
      <trkpt lat="47.07856" lon="5.44392">
        <ele>222.68</ele>
        <time>2016-04-22T08:38:31Z</time>
      </trkpt>
      <trkpt lat="47.07858" lon="5.44402">
        <ele>222.68</ele>
        <time>2016-04-22T08:38:34Z</time>
      </trkpt>
      <trkpt lat="47.07849" lon="5.44405">
        <ele>222.68</ele>
        <time>2016-04-22T08:38:38Z</time>
      </trkpt>
      <trkpt lat="47.07845" lon="5.44404">
        <ele>222.68</ele>
        <time>2016-04-22T08:38:39Z</time>
      </trkpt>
      <trkpt lat="47.07824" lon="5.44392">
        <ele>223.16</ele>
        <time>2016-04-22T08:38:47Z</time>
      </trkpt>
      <trkpt lat="47.07805" lon="5.44376">
        <ele>223.16</ele>
        <time>2016-04-22T08:38:55Z</time>
      </trkpt>
      <trkpt lat="47.07791" lon="5.44364">
        <ele>224.12</ele>
        <time>2016-04-22T08:39:01Z</time>
      </trkpt>
      <trkpt lat="47.07774" lon="5.4435">
        <ele>224.61</ele>
        <time>2016-04-22T08:39:08Z</time>
      </trkpt>
      <trkpt lat="47.07759" lon="5.44338">
        <ele>225.09</ele>
        <time>2016-04-22T08:39:14Z</time>
      </trkpt>
      <trkpt lat="47.07741" lon="5.44325">
        <ele>226.05</ele>
        <time>2016-04-22T08:39:21Z</time>
      </trkpt>
      <trkpt lat="47.07727" lon="5.44313">
        <ele>227.01</ele>
        <time>2016-04-22T08:39:27Z</time>
      </trkpt>
      <trkpt lat="47.07709" lon="5.44298">
        <ele>228.93</ele>
        <time>2016-04-22T08:39:34Z</time>
      </trkpt>
      <trkpt lat="47.07691" lon="5.44284">
        <ele>231.33</ele>
        <time>2016-04-22T08:39:42Z</time>
      </trkpt>
      <trkpt lat="47.07677" lon="5.44273">
        <ele>233.26</ele>
        <time>2016-04-22T08:39:48Z</time>
      </trkpt>
      <trkpt lat="47.07664" lon="5.44259">
        <ele>234.7</ele>
        <time>2016-04-22T08:39:54Z</time>
      </trkpt>
      <trkpt lat="47.07645" lon="5.44244">
        <ele>236.14</ele>
        <time>2016-04-22T08:40:01Z</time>
      </trkpt>
      <trkpt lat="47.07626" lon="5.44225">
        <ele>238.54</ele>
        <time>2016-04-22T08:40:09Z</time>
      </trkpt>
      <trkpt lat="47.07611" lon="5.4421">
        <ele>240.95</ele>
        <time>2016-04-22T08:40:16Z</time>
      </trkpt>
      <trkpt lat="47.07598" lon="5.44196">
        <ele>242.39</ele>
        <time>2016-04-22T08:40:22Z</time>
      </trkpt>
      <trkpt lat="47.07583" lon="5.44182">
        <ele>243.35</ele>
        <time>2016-04-22T08:40:28Z</time>
      </trkpt>
      <trkpt lat="47.07564" lon="5.44165">
        <ele>243.35</ele>
        <time>2016-04-22T08:40:35Z</time>
      </trkpt>
      <trkpt lat="47.0755" lon="5.44148">
        <ele>241.91</ele>
        <time>2016-04-22T08:40:41Z</time>
      </trkpt>
      <trkpt lat="47.07529" lon="5.44126">
        <ele>240.47</ele>
        <time>2016-04-22T08:40:49Z</time>
      </trkpt>
      <trkpt lat="47.07514" lon="5.44108">
        <ele>239.02</ele>
        <time>2016-04-22T08:40:56Z</time>
      </trkpt>
      <trkpt lat="47.07502" lon="5.44092">
        <ele>238.06</ele>
        <time>2016-04-22T08:41:02Z</time>
      </trkpt>
      <trkpt lat="47.07486" lon="5.44077">
        <ele>234.7</ele>
        <time>2016-04-22T08:41:09Z</time>
      </trkpt>
      <trkpt lat="47.07469" lon="5.44061">
        <ele>235.18</ele>
        <time>2016-04-22T08:41:16Z</time>
      </trkpt>
      <trkpt lat="47.07452" lon="5.44041">
        <ele>234.22</ele>
        <time>2016-04-22T08:41:24Z</time>
      </trkpt>
      <trkpt lat="47.07436" lon="5.44025">
        <ele>233.74</ele>
        <time>2016-04-22T08:41:31Z</time>
      </trkpt>
      <trkpt lat="47.07422" lon="5.4401">
        <ele>234.22</ele>
        <time>2016-04-22T08:41:37Z</time>
      </trkpt>
      <trkpt lat="47.07408" lon="5.44001">
        <ele>234.7</ele>
        <time>2016-04-22T08:41:43Z</time>
      </trkpt>
      <trkpt lat="47.07401" lon="5.43994">
        <ele>234.7</ele>
        <time>2016-04-22T08:41:46Z</time>
      </trkpt>
      <trkpt lat="47.07381" lon="5.43976">
        <ele>235.18</ele>
        <time>2016-04-22T08:41:54Z</time>
      </trkpt>
      <trkpt lat="47.07369" lon="5.43955">
        <ele>235.66</ele>
        <time>2016-04-22T08:42:00Z</time>
      </trkpt>
      <trkpt lat="47.07357" lon="5.43938">
        <ele>236.62</ele>
        <time>2016-04-22T08:42:05Z</time>
      </trkpt>
      <trkpt lat="47.07343" lon="5.43919">
        <ele>238.06</ele>
        <time>2016-04-22T08:42:12Z</time>
      </trkpt>
      <trkpt lat="47.07327" lon="5.43905">
        <ele>240.47</ele>
        <time>2016-04-22T08:42:18Z</time>
      </trkpt>
      <trkpt lat="47.07312" lon="5.43895">
        <ele>242.39</ele>
        <time>2016-04-22T08:42:24Z</time>
      </trkpt>
      <trkpt lat="47.073" lon="5.43887">
        <ele>243.83</ele>
        <time>2016-04-22T08:42:29Z</time>
      </trkpt>
      <trkpt lat="47.07284" lon="5.43874">
        <ele>244.79</ele>
        <time>2016-04-22T08:42:38Z</time>
      </trkpt>
      <trkpt lat="47.07267" lon="5.43851">
        <ele>244.31</ele>
        <time>2016-04-22T08:42:45Z</time>
      </trkpt>
      <trkpt lat="47.0725" lon="5.4382">
        <ele>242.39</ele>
        <time>2016-04-22T08:42:52Z</time>
      </trkpt>
      <trkpt lat="47.0724" lon="5.43802">
        <ele>241.43</ele>
        <time>2016-04-22T08:42:57Z</time>
      </trkpt>
      <trkpt lat="47.07224" lon="5.43784">
        <ele>240.95</ele>
        <time>2016-04-22T08:43:04Z</time>
      </trkpt>
      <trkpt lat="47.07209" lon="5.43766">
        <ele>240.95</ele>
        <time>2016-04-22T08:43:11Z</time>
      </trkpt>
      <trkpt lat="47.07192" lon="5.4375">
        <ele>241.43</ele>
        <time>2016-04-22T08:43:19Z</time>
      </trkpt>
      <trkpt lat="47.07175" lon="5.43734">
        <ele>241.43</ele>
        <time>2016-04-22T08:43:26Z</time>
      </trkpt>
      <trkpt lat="47.07155" lon="5.43715">
        <ele>242.87</ele>
        <time>2016-04-22T08:43:34Z</time>
      </trkpt>
      <trkpt lat="47.07135" lon="5.43695">
        <ele>245.27</ele>
        <time>2016-04-22T08:43:42Z</time>
      </trkpt>
      <trkpt lat="47.07115" lon="5.43678">
        <ele>247.68</ele>
        <time>2016-04-22T08:43:50Z</time>
      </trkpt>
      <trkpt lat="47.07099" lon="5.43666">
        <ele>248.64</ele>
        <time>2016-04-22T08:43:56Z</time>
      </trkpt>
      <trkpt lat="47.07078" lon="5.43644">
        <ele>248.16</ele>
        <time>2016-04-22T08:44:04Z</time>
      </trkpt>
      <trkpt lat="47.07063" lon="5.43629">
        <ele>247.2</ele>
        <time>2016-04-22T08:44:10Z</time>
      </trkpt>
      <trkpt lat="47.07048" lon="5.43613">
        <ele>246.72</ele>
        <time>2016-04-22T08:44:17Z</time>
      </trkpt>
      <trkpt lat="47.0703" lon="5.436">
        <ele>247.2</ele>
        <time>2016-04-22T08:44:24Z</time>
      </trkpt>
      <trkpt lat="47.0701" lon="5.43584">
        <ele>247.2</ele>
        <time>2016-04-22T08:44:32Z</time>
      </trkpt>
      <trkpt lat="47.06989" lon="5.43563">
        <ele>246.23</ele>
        <time>2016-04-22T08:44:41Z</time>
      </trkpt>
      <trkpt lat="47.0697" lon="5.43549">
        <ele>244.79</ele>
        <time>2016-04-22T08:44:48Z</time>
      </trkpt>
      <trkpt lat="47.06949" lon="5.43536">
        <ele>243.35</ele>
        <time>2016-04-22T08:44:55Z</time>
      </trkpt>
      <trkpt lat="47.06934" lon="5.43517">
        <ele>244.79</ele>
        <time>2016-04-22T08:45:02Z</time>
      </trkpt>
      <trkpt lat="47.06918" lon="5.43501">
        <ele>244.31</ele>
        <time>2016-04-22T08:45:09Z</time>
      </trkpt>
      <trkpt lat="47.06899" lon="5.43487">
        <ele>243.35</ele>
        <time>2016-04-22T08:45:16Z</time>
      </trkpt>
      <trkpt lat="47.06876" lon="5.43472">
        <ele>243.83</ele>
        <time>2016-04-22T08:45:25Z</time>
      </trkpt>
      <trkpt lat="47.06857" lon="5.43455">
        <ele>243.35</ele>
        <time>2016-04-22T08:45:33Z</time>
      </trkpt>
      <trkpt lat="47.06838" lon="5.4344">
        <ele>242.39</ele>
        <time>2016-04-22T08:45:40Z</time>
      </trkpt>
      <trkpt lat="47.06817" lon="5.43424">
        <ele>239.51</ele>
        <time>2016-04-22T08:45:48Z</time>
      </trkpt>
      <trkpt lat="47.068" lon="5.43407">
        <ele>238.54</ele>
        <time>2016-04-22T08:45:56Z</time>
      </trkpt>
      <trkpt lat="47.0678" lon="5.43392">
        <ele>237.58</ele>
        <time>2016-04-22T08:46:04Z</time>
      </trkpt>
      <trkpt lat="47.0676" lon="5.43377">
        <ele>237.1</ele>
        <time>2016-04-22T08:46:12Z</time>
      </trkpt>
      <trkpt lat="47.06742" lon="5.43364">
        <ele>236.62</ele>
        <time>2016-04-22T08:46:20Z</time>
      </trkpt>
      <trkpt lat="47.06722" lon="5.43354">
        <ele>236.62</ele>
        <time>2016-04-22T08:46:28Z</time>
      </trkpt>
      <trkpt lat="47.06702" lon="5.43341">
        <ele>238.06</ele>
        <time>2016-04-22T08:46:35Z</time>
      </trkpt>
      <trkpt lat="47.06681" lon="5.43327">
        <ele>239.51</ele>
        <time>2016-04-22T08:46:43Z</time>
      </trkpt>
      <trkpt lat="47.06667" lon="5.43314">
        <ele>239.99</ele>
        <time>2016-04-22T08:46:49Z</time>
      </trkpt>
      <trkpt lat="47.06652" lon="5.43301">
        <ele>240.47</ele>
        <time>2016-04-22T08:46:56Z</time>
      </trkpt>
      <trkpt lat="47.06633" lon="5.43283">
        <ele>239.51</ele>
        <time>2016-04-22T08:47:04Z</time>
      </trkpt>
      <trkpt lat="47.06622" lon="5.4327">
        <ele>238.54</ele>
        <time>2016-04-22T08:47:09Z</time>
      </trkpt>
      <trkpt lat="47.06604" lon="5.43257">
        <ele>235.66</ele>
        <time>2016-04-22T08:47:16Z</time>
      </trkpt>
      <trkpt lat="47.06586" lon="5.43245">
        <ele>229.89</ele>
        <time>2016-04-22T08:47:23Z</time>
      </trkpt>
      <trkpt lat="47.06567" lon="5.43231">
        <ele>226.53</ele>
        <time>2016-04-22T08:47:30Z</time>
      </trkpt>
      <trkpt lat="47.06548" lon="5.43219">
        <ele>224.12</ele>
        <time>2016-04-22T08:47:37Z</time>
      </trkpt>
      <trkpt lat="47.06534" lon="5.43207">
        <ele>221.24</ele>
        <time>2016-04-22T08:47:43Z</time>
      </trkpt>
      <trkpt lat="47.06513" lon="5.43197">
        <ele>219.32</ele>
        <time>2016-04-22T08:47:51Z</time>
      </trkpt>
      <trkpt lat="47.06499" lon="5.43189">
        <ele>219.32</ele>
        <time>2016-04-22T08:47:57Z</time>
      </trkpt>
      <trkpt lat="47.06483" lon="5.4318">
        <ele>219.8</ele>
        <time>2016-04-22T08:48:03Z</time>
      </trkpt>
      <trkpt lat="47.06466" lon="5.43173">
        <ele>220.28</ele>
        <time>2016-04-22T08:48:09Z</time>
      </trkpt>
      <trkpt lat="47.06459" lon="5.43164">
        <ele>220.28</ele>
        <time>2016-04-22T08:48:14Z</time>
      </trkpt>
      <trkpt lat="47.06451" lon="5.43155">
        <ele>221.72</ele>
        <time>2016-04-22T08:48:20Z</time>
      </trkpt>
      <trkpt lat="47.06443" lon="5.43142">
        <ele>224.12</ele>
        <time>2016-04-22T08:48:28Z</time>
      </trkpt>
      <trkpt lat="47.0644" lon="5.4315">
        <ele>222.2</ele>
        <time>2016-04-22T08:48:36Z</time>
      </trkpt>
      <trkpt lat="47.06429" lon="5.43174">
        <ele>220.28</ele>
        <time>2016-04-22T08:48:43Z</time>
      </trkpt>
      <trkpt lat="47.06424" lon="5.43197">
        <ele>219.32</ele>
        <time>2016-04-22T08:48:49Z</time>
      </trkpt>
      <trkpt lat="47.06415" lon="5.43223">
        <ele>217.88</ele>
        <time>2016-04-22T08:48:56Z</time>
      </trkpt>
      <trkpt lat="47.06402" lon="5.4324">
        <ele>217.88</ele>
        <time>2016-04-22T08:49:02Z</time>
      </trkpt>
      <trkpt lat="47.06387" lon="5.43265">
        <ele>217.88</ele>
        <time>2016-04-22T08:49:10Z</time>
      </trkpt>
      <trkpt lat="47.06373" lon="5.43286">
        <ele>215.95</ele>
        <time>2016-04-22T08:49:17Z</time>
      </trkpt>
      <trkpt lat="47.06359" lon="5.43312">
        <ele>215.47</ele>
        <time>2016-04-22T08:49:26Z</time>
      </trkpt>
      <trkpt lat="47.06352" lon="5.43331">
        <ele>215.47</ele>
        <time>2016-04-22T08:49:32Z</time>
      </trkpt>
      <trkpt lat="47.06349" lon="5.43341">
        <ele>216.43</ele>
        <time>2016-04-22T08:49:36Z</time>
      </trkpt>
      <trkpt lat="47.06334" lon="5.43365">
        <ele>218.84</ele>
        <time>2016-04-22T08:49:45Z</time>
      </trkpt>
      <trkpt lat="47.06318" lon="5.43381">
        <ele>219.8</ele>
        <time>2016-04-22T08:49:52Z</time>
      </trkpt>
      <trkpt lat="47.06312" lon="5.43387">
        <ele>221.24</ele>
        <time>2016-04-22T08:49:56Z</time>
      </trkpt>
      <trkpt lat="47.06294" lon="5.4341">
        <ele>224.61</ele>
        <time>2016-04-22T08:50:04Z</time>
      </trkpt>
      <trkpt lat="47.06283" lon="5.43444">
        <ele>226.05</ele>
        <time>2016-04-22T08:50:12Z</time>
      </trkpt>
      <trkpt lat="47.06276" lon="5.43476">
        <ele>226.53</ele>
        <time>2016-04-22T08:50:19Z</time>
      </trkpt>
      <trkpt lat="47.06268" lon="5.43501">
        <ele>226.05</ele>
        <time>2016-04-22T08:50:25Z</time>
      </trkpt>
      <trkpt lat="47.06261" lon="5.43522">
        <ele>224.12</ele>
        <time>2016-04-22T08:50:31Z</time>
      </trkpt>
      <trkpt lat="47.06256" lon="5.43549">
        <ele>220.76</ele>
        <time>2016-04-22T08:50:38Z</time>
      </trkpt>
      <trkpt lat="47.06244" lon="5.43575">
        <ele>219.32</ele>
        <time>2016-04-22T08:50:45Z</time>
      </trkpt>
      <trkpt lat="47.06233" lon="5.43581">
        <ele>218.84</ele>
        <time>2016-04-22T08:50:49Z</time>
      </trkpt>
      <trkpt lat="47.06212" lon="5.43571">
        <ele>219.32</ele>
        <time>2016-04-22T08:50:56Z</time>
      </trkpt>
      <trkpt lat="47.06192" lon="5.4356">
        <ele>219.32</ele>
        <time>2016-04-22T08:51:03Z</time>
      </trkpt>
      <trkpt lat="47.06175" lon="5.4356">
        <ele>220.28</ele>
        <time>2016-04-22T08:51:09Z</time>
      </trkpt>
      <trkpt lat="47.06166" lon="5.43585">
        <ele>218.36</ele>
        <time>2016-04-22T08:51:17Z</time>
      </trkpt>
      <trkpt lat="47.0616" lon="5.43614">
        <ele>217.88</ele>
        <time>2016-04-22T08:51:25Z</time>
      </trkpt>
      <trkpt lat="47.06151" lon="5.43626">
        <ele>217.4</ele>
        <time>2016-04-22T08:51:29Z</time>
      </trkpt>
      <trkpt lat="47.0613" lon="5.43637">
        <ele>216.91</ele>
        <time>2016-04-22T08:51:36Z</time>
      </trkpt>
      <trkpt lat="47.06107" lon="5.43639">
        <ele>217.4</ele>
        <time>2016-04-22T08:51:43Z</time>
      </trkpt>
      <trkpt lat="47.06091" lon="5.43638">
        <ele>217.4</ele>
        <time>2016-04-22T08:51:49Z</time>
      </trkpt>
      <trkpt lat="47.06072" lon="5.43637">
        <ele>215.47</ele>
        <time>2016-04-22T08:51:56Z</time>
      </trkpt>
      <trkpt lat="47.06047" lon="5.43635">
        <ele>211.63</ele>
        <time>2016-04-22T08:52:04Z</time>
      </trkpt>
      <trkpt lat="47.06025" lon="5.43633">
        <ele>210.67</ele>
        <time>2016-04-22T08:52:12Z</time>
      </trkpt>
      <trkpt lat="47.06006" lon="5.43635">
        <ele>209.22</ele>
        <time>2016-04-22T08:52:19Z</time>
      </trkpt>
      <trkpt lat="47.05991" lon="5.43642">
        <ele>209.7</ele>
        <time>2016-04-22T08:52:25Z</time>
      </trkpt>
      <trkpt lat="47.05983" lon="5.43645">
        <ele>209.22</ele>
        <time>2016-04-22T08:52:28Z</time>
      </trkpt>
      <trkpt lat="47.05974" lon="5.43632">
        <ele>209.22</ele>
        <time>2016-04-22T08:52:33Z</time>
      </trkpt>
      <trkpt lat="47.05972" lon="5.43588">
        <ele>210.19</ele>
        <time>2016-04-22T08:52:43Z</time>
      </trkpt>
      <trkpt lat="47.05971" lon="5.43559">
        <ele>211.63</ele>
        <time>2016-04-22T08:52:50Z</time>
      </trkpt>
      <trkpt lat="47.05971" lon="5.43528">
        <ele>213.55</ele>
        <time>2016-04-22T08:52:57Z</time>
      </trkpt>
      <trkpt lat="47.05971" lon="5.43495">
        <ele>214.99</ele>
        <time>2016-04-22T08:53:04Z</time>
      </trkpt>
      <trkpt lat="47.05971" lon="5.43465">
        <ele>216.43</ele>
        <time>2016-04-22T08:53:11Z</time>
      </trkpt>
      <trkpt lat="47.05971" lon="5.43432">
        <ele>214.99</ele>
        <time>2016-04-22T08:53:18Z</time>
      </trkpt>
      <trkpt lat="47.05971" lon="5.43398">
        <ele>214.03</ele>
        <time>2016-04-22T08:53:26Z</time>
      </trkpt>
      <trkpt lat="47.05971" lon="5.43372">
        <ele>214.51</ele>
        <time>2016-04-22T08:53:32Z</time>
      </trkpt>
      <trkpt lat="47.05972" lon="5.43338">
        <ele>215.95</ele>
        <time>2016-04-22T08:53:40Z</time>
      </trkpt>
      <trkpt lat="47.05971" lon="5.43304">
        <ele>217.88</ele>
        <time>2016-04-22T08:53:48Z</time>
      </trkpt>
      <trkpt lat="47.0597" lon="5.43271">
        <ele>217.88</ele>
        <time>2016-04-22T08:53:56Z</time>
      </trkpt>
      <trkpt lat="47.05971" lon="5.43236">
        <ele>214.03</ele>
        <time>2016-04-22T08:54:04Z</time>
      </trkpt>
      <trkpt lat="47.05971" lon="5.43207">
        <ele>211.15</ele>
        <time>2016-04-22T08:54:11Z</time>
      </trkpt>
      <trkpt lat="47.05971" lon="5.43181">
        <ele>210.67</ele>
        <time>2016-04-22T08:54:17Z</time>
      </trkpt>
      <trkpt lat="47.05972" lon="5.43155">
        <ele>210.19</ele>
        <time>2016-04-22T08:54:23Z</time>
      </trkpt>
      <trkpt lat="47.0597" lon="5.43125">
        <ele>210.19</ele>
        <time>2016-04-22T08:54:30Z</time>
      </trkpt>
      <trkpt lat="47.05969" lon="5.43095">
        <ele>209.7</ele>
        <time>2016-04-22T08:54:37Z</time>
      </trkpt>
      <trkpt lat="47.05968" lon="5.43065">
        <ele>210.19</ele>
        <time>2016-04-22T08:54:44Z</time>
      </trkpt>
      <trkpt lat="47.05969" lon="5.43036">
        <ele>209.22</ele>
        <time>2016-04-22T08:54:51Z</time>
      </trkpt>
      <trkpt lat="47.05969" lon="5.43003">
        <ele>207.78</ele>
        <time>2016-04-22T08:54:59Z</time>
      </trkpt>
      <trkpt lat="47.05966" lon="5.42973">
        <ele>206.34</ele>
        <time>2016-04-22T08:55:06Z</time>
      </trkpt>
      <trkpt lat="47.05966" lon="5.4295">
        <ele>205.86</ele>
        <time>2016-04-22T08:55:12Z</time>
      </trkpt>
      <trkpt lat="47.05966" lon="5.42924">
        <ele>205.86</ele>
        <time>2016-04-22T08:55:19Z</time>
      </trkpt>
      <trkpt lat="47.05964" lon="5.42894">
        <ele>206.34</ele>
        <time>2016-04-22T08:55:26Z</time>
      </trkpt>
      <trkpt lat="47.05963" lon="5.42869">
        <ele>206.34</ele>
        <time>2016-04-22T08:55:32Z</time>
      </trkpt>
      <trkpt lat="47.05962" lon="5.42847">
        <ele>206.82</ele>
        <time>2016-04-22T08:55:37Z</time>
      </trkpt>
      <trkpt lat="47.05961" lon="5.42816">
        <ele>208.26</ele>
        <time>2016-04-22T08:55:44Z</time>
      </trkpt>
      <trkpt lat="47.05961" lon="5.42794">
        <ele>209.7</ele>
        <time>2016-04-22T08:55:50Z</time>
      </trkpt>
      <trkpt lat="47.05963" lon="5.42758">
        <ele>210.19</ele>
        <time>2016-04-22T08:55:59Z</time>
      </trkpt>
      <trkpt lat="47.05967" lon="5.42721">
        <ele>209.22</ele>
        <time>2016-04-22T08:56:07Z</time>
      </trkpt>
      <trkpt lat="47.05967" lon="5.42703">
        <ele>207.78</ele>
        <time>2016-04-22T08:56:11Z</time>
      </trkpt>
      <trkpt lat="47.05969" lon="5.42695">
        <ele>207.3</ele>
        <time>2016-04-22T08:56:14Z</time>
      </trkpt>
      <trkpt lat="47.05968" lon="5.42682">
        <ele>205.38</ele>
        <time>2016-04-22T08:56:18Z</time>
      </trkpt>
      <trkpt lat="47.0596" lon="5.42679">
        <ele>203.94</ele>
        <time>2016-04-22T08:56:22Z</time>
      </trkpt>
      <trkpt lat="47.05947" lon="5.42675">
        <ele>202.49</ele>
        <time>2016-04-22T08:56:27Z</time>
      </trkpt>
      <trkpt lat="47.05936" lon="5.42672">
        <ele>202.01</ele>
        <time>2016-04-22T08:56:31Z</time>
      </trkpt>
      <trkpt lat="47.05918" lon="5.42667">
        <ele>200.57</ele>
        <time>2016-04-22T08:56:37Z</time>
      </trkpt>
      <trkpt lat="47.05903" lon="5.42667">
        <ele>199.13</ele>
        <time>2016-04-22T08:56:42Z</time>
      </trkpt>
      <trkpt lat="47.05891" lon="5.42664">
        <ele>197.69</ele>
        <time>2016-04-22T08:56:46Z</time>
      </trkpt>
      <trkpt lat="47.0588" lon="5.42655">
        <ele>196.25</ele>
        <time>2016-04-22T08:56:50Z</time>
      </trkpt>
      <trkpt lat="47.05869" lon="5.42655">
        <ele>195.28</ele>
        <time>2016-04-22T08:56:54Z</time>
      </trkpt>
      <trkpt lat="47.05845" lon="5.42661">
        <ele>196.25</ele>
        <time>2016-04-22T08:57:01Z</time>
      </trkpt>
      <trkpt lat="47.05835" lon="5.42663">
        <ele>196.73</ele>
        <time>2016-04-22T08:57:05Z</time>
      </trkpt>
      <trkpt lat="47.0582" lon="5.42663">
        <ele>197.69</ele>
        <time>2016-04-22T08:57:10Z</time>
      </trkpt>
      <trkpt lat="47.05806" lon="5.42664">
        <ele>198.17</ele>
        <time>2016-04-22T08:57:15Z</time>
      </trkpt>
      <trkpt lat="47.0579" lon="5.42667">
        <ele>198.65</ele>
        <time>2016-04-22T08:57:20Z</time>
      </trkpt>
      <trkpt lat="47.05775" lon="5.42669">
        <ele>198.17</ele>
        <time>2016-04-22T08:57:25Z</time>
      </trkpt>
      <trkpt lat="47.05756" lon="5.42672">
        <ele>197.69</ele>
        <time>2016-04-22T08:57:31Z</time>
      </trkpt>
      <trkpt lat="47.05746" lon="5.42674">
        <ele>198.65</ele>
        <time>2016-04-22T08:57:35Z</time>
      </trkpt>
      <trkpt lat="47.0573" lon="5.42677">
        <ele>199.13</ele>
        <time>2016-04-22T08:57:40Z</time>
      </trkpt>
      <trkpt lat="47.05727" lon="5.42678">
        <ele>199.13</ele>
        <time>2016-04-22T08:57:41Z</time>
      </trkpt>
      <trkpt lat="47.05725" lon="5.42677">
        <ele>199.61</ele>
        <time>2016-04-22T08:57:42Z</time>
      </trkpt>
      <trkpt lat="47.05723" lon="5.42678">
        <ele>199.61</ele>
        <time>2016-04-22T08:57:43Z</time>
      </trkpt>
      <trkpt lat="47.05718" lon="5.4268">
        <ele>200.09</ele>
        <time>2016-04-22T08:57:45Z</time>
      </trkpt>
      <trkpt lat="47.05715" lon="5.42682">
        <ele>200.09</ele>
        <time>2016-04-22T08:57:46Z</time>
      </trkpt>
      <trkpt lat="47.05713" lon="5.42683">
        <ele>200.09</ele>
        <time>2016-04-22T08:57:47Z</time>
      </trkpt>
      <trkpt lat="47.0571" lon="5.42685">
        <ele>200.57</ele>
        <time>2016-04-22T08:57:48Z</time>
      </trkpt>
      <trkpt lat="47.05707" lon="5.42686">
        <ele>201.05</ele>
        <time>2016-04-22T08:57:49Z</time>
      </trkpt>
      <trkpt lat="47.05704" lon="5.42686">
        <ele>201.05</ele>
        <time>2016-04-22T08:57:50Z</time>
      </trkpt>
      <trkpt lat="47.05701" lon="5.42687">
        <ele>201.53</ele>
        <time>2016-04-22T08:57:51Z</time>
      </trkpt>
      <trkpt lat="47.05698" lon="5.42687">
        <ele>202.01</ele>
        <time>2016-04-22T08:57:52Z</time>
      </trkpt>
      <trkpt lat="47.05695" lon="5.42688">
        <ele>202.49</ele>
        <time>2016-04-22T08:57:53Z</time>
      </trkpt>
      <trkpt lat="47.05692" lon="5.42689">
        <ele>202.49</ele>
        <time>2016-04-22T08:57:54Z</time>
      </trkpt>
      <trkpt lat="47.0569" lon="5.42689">
        <ele>202.49</ele>
        <time>2016-04-22T08:57:55Z</time>
      </trkpt>
      <trkpt lat="47.05685" lon="5.42691">
        <ele>202.98</ele>
        <time>2016-04-22T08:57:57Z</time>
      </trkpt>
      <trkpt lat="47.0567" lon="5.42693">
        <ele>204.42</ele>
        <time>2016-04-22T08:58:02Z</time>
      </trkpt>
      <trkpt lat="47.05656" lon="5.42696">
        <ele>205.38</ele>
        <time>2016-04-22T08:58:07Z</time>
      </trkpt>
      <trkpt lat="47.05651" lon="5.42697">
        <ele>206.34</ele>
        <time>2016-04-22T08:58:09Z</time>
      </trkpt>
      <trkpt lat="47.05648" lon="5.42698">
        <ele>206.34</ele>
        <time>2016-04-22T08:58:10Z</time>
      </trkpt>
      <trkpt lat="47.05645" lon="5.42698">
        <ele>206.34</ele>
        <time>2016-04-22T08:58:11Z</time>
      </trkpt>
      <trkpt lat="47.05642" lon="5.42697">
        <ele>206.82</ele>
        <time>2016-04-22T08:58:12Z</time>
      </trkpt>
      <trkpt lat="47.05639" lon="5.42696">
        <ele>207.3</ele>
        <time>2016-04-22T08:58:13Z</time>
      </trkpt>
      <trkpt lat="47.05636" lon="5.42694">
        <ele>207.3</ele>
        <time>2016-04-22T08:58:14Z</time>
      </trkpt>
      <trkpt lat="47.05634" lon="5.42693">
        <ele>207.78</ele>
        <time>2016-04-22T08:58:15Z</time>
      </trkpt>
      <trkpt lat="47.05631" lon="5.42691">
        <ele>207.78</ele>
        <time>2016-04-22T08:58:16Z</time>
      </trkpt>
      <trkpt lat="47.05629" lon="5.42688">
        <ele>207.3</ele>
        <time>2016-04-22T08:58:17Z</time>
      </trkpt>
      <trkpt lat="47.05626" lon="5.42685">
        <ele>207.78</ele>
        <time>2016-04-22T08:58:18Z</time>
      </trkpt>
      <trkpt lat="47.05624" lon="5.42682">
        <ele>207.78</ele>
        <time>2016-04-22T08:58:19Z</time>
      </trkpt>
      <trkpt lat="47.05622" lon="5.42679">
        <ele>207.78</ele>
        <time>2016-04-22T08:58:20Z</time>
      </trkpt>
      <trkpt lat="47.05619" lon="5.42676">
        <ele>207.78</ele>
        <time>2016-04-22T08:58:21Z</time>
      </trkpt>
      <trkpt lat="47.05616" lon="5.42672">
        <ele>208.26</ele>
        <time>2016-04-22T08:58:22Z</time>
      </trkpt>
      <trkpt lat="47.05608" lon="5.42659">
        <ele>208.26</ele>
        <time>2016-04-22T08:58:26Z</time>
      </trkpt>
      <trkpt lat="47.05595" lon="5.42648">
        <ele>208.26</ele>
        <time>2016-04-22T08:58:31Z</time>
      </trkpt>
      <trkpt lat="47.05594" lon="5.42646">
        <ele>208.26</ele>
        <time>2016-04-22T08:58:32Z</time>
      </trkpt>
      <trkpt lat="47.05586" lon="5.42627">
        <ele>208.26</ele>
        <time>2016-04-22T08:58:37Z</time>
      </trkpt>
      <trkpt lat="47.05582" lon="5.42608">
        <ele>208.26</ele>
        <time>2016-04-22T08:58:41Z</time>
      </trkpt>
      <trkpt lat="47.05573" lon="5.4259">
        <ele>207.3</ele>
        <time>2016-04-22T08:58:46Z</time>
      </trkpt>
      <trkpt lat="47.05563" lon="5.4257">
        <ele>205.38</ele>
        <time>2016-04-22T08:58:52Z</time>
      </trkpt>
      <trkpt lat="47.05554" lon="5.42553">
        <ele>204.42</ele>
        <time>2016-04-22T08:58:57Z</time>
      </trkpt>
      <trkpt lat="47.05545" lon="5.42539">
        <ele>202.49</ele>
        <time>2016-04-22T08:59:02Z</time>
      </trkpt>
      <trkpt lat="47.05535" lon="5.42518">
        <ele>201.05</ele>
        <time>2016-04-22T08:59:07Z</time>
      </trkpt>
      <trkpt lat="47.05522" lon="5.42494">
        <ele>199.61</ele>
        <time>2016-04-22T08:59:14Z</time>
      </trkpt>
      <trkpt lat="47.05516" lon="5.42484">
        <ele>199.61</ele>
        <time>2016-04-22T08:59:17Z</time>
      </trkpt>
      <trkpt lat="47.05507" lon="5.42466">
        <ele>199.61</ele>
        <time>2016-04-22T08:59:22Z</time>
      </trkpt>
      <trkpt lat="47.05495" lon="5.4244">
        <ele>199.13</ele>
        <time>2016-04-22T08:59:29Z</time>
      </trkpt>
      <trkpt lat="47.05486" lon="5.42425">
        <ele>198.65</ele>
        <time>2016-04-22T08:59:33Z</time>
      </trkpt>
      <trkpt lat="47.05483" lon="5.42421">
        <ele>198.65</ele>
        <time>2016-04-22T08:59:34Z</time>
      </trkpt>
      <trkpt lat="47.0548" lon="5.42418">
        <ele>198.65</ele>
        <time>2016-04-22T08:59:35Z</time>
      </trkpt>
      <trkpt lat="47.05478" lon="5.42414">
        <ele>198.65</ele>
        <time>2016-04-22T08:59:36Z</time>
      </trkpt>
      <trkpt lat="47.05477" lon="5.42411">
        <ele>198.65</ele>
        <time>2016-04-22T08:59:37Z</time>
      </trkpt>
      <trkpt lat="47.05475" lon="5.42408">
        <ele>198.65</ele>
        <time>2016-04-22T08:59:38Z</time>
      </trkpt>
      <trkpt lat="47.05468" lon="5.42391">
        <ele>199.13</ele>
        <time>2016-04-22T08:59:43Z</time>
      </trkpt>
      <trkpt lat="47.05464" lon="5.42384">
        <ele>199.13</ele>
        <time>2016-04-22T08:59:45Z</time>
      </trkpt>
      <trkpt lat="47.05462" lon="5.42382">
        <ele>199.61</ele>
        <time>2016-04-22T08:59:46Z</time>
      </trkpt>
      <trkpt lat="47.0546" lon="5.42379">
        <ele>199.61</ele>
        <time>2016-04-22T08:59:47Z</time>
      </trkpt>
      <trkpt lat="47.05458" lon="5.42376">
        <ele>200.09</ele>
        <time>2016-04-22T08:59:48Z</time>
      </trkpt>
      <trkpt lat="47.05456" lon="5.42372">
        <ele>200.57</ele>
        <time>2016-04-22T08:59:49Z</time>
      </trkpt>
      <trkpt lat="47.05453" lon="5.42366">
        <ele>201.05</ele>
        <time>2016-04-22T08:59:50Z</time>
      </trkpt>
      <trkpt lat="47.05452" lon="5.42363">
        <ele>201.53</ele>
        <time>2016-04-22T08:59:51Z</time>
      </trkpt>
      <trkpt lat="47.05449" lon="5.42356">
        <ele>202.49</ele>
        <time>2016-04-22T08:59:54Z</time>
      </trkpt>
      <trkpt lat="47.05441" lon="5.42345">
        <ele>202.98</ele>
        <time>2016-04-22T08:59:58Z</time>
      </trkpt>
      <trkpt lat="47.05434" lon="5.42335">
        <ele>202.98</ele>
        <time>2016-04-22T09:00:02Z</time>
      </trkpt>
      <trkpt lat="47.05425" lon="5.4232">
        <ele>201.53</ele>
        <time>2016-04-22T09:00:07Z</time>
      </trkpt>
      <trkpt lat="47.05417" lon="5.42309">
        <ele>200.57</ele>
        <time>2016-04-22T09:00:11Z</time>
      </trkpt>
      <trkpt lat="47.05416" lon="5.42306">
        <ele>200.57</ele>
        <time>2016-04-22T09:00:12Z</time>
      </trkpt>
      <trkpt lat="47.05414" lon="5.42303">
        <ele>200.57</ele>
        <time>2016-04-22T09:00:13Z</time>
      </trkpt>
      <trkpt lat="47.05397" lon="5.42295">
        <ele>199.61</ele>
        <time>2016-04-22T09:00:19Z</time>
      </trkpt>
      <trkpt lat="47.05395" lon="5.42297">
        <ele>199.13</ele>
        <time>2016-04-22T09:00:20Z</time>
      </trkpt>
      <trkpt lat="47.05393" lon="5.423">
        <ele>199.13</ele>
        <time>2016-04-22T09:00:21Z</time>
      </trkpt>
      <trkpt lat="47.05391" lon="5.42302">
        <ele>198.65</ele>
        <time>2016-04-22T09:00:22Z</time>
      </trkpt>
      <trkpt lat="47.05388" lon="5.42305">
        <ele>198.17</ele>
        <time>2016-04-22T09:00:23Z</time>
      </trkpt>
      <trkpt lat="47.05379" lon="5.42319">
        <ele>196.73</ele>
        <time>2016-04-22T09:00:28Z</time>
      </trkpt>
      <trkpt lat="47.05367" lon="5.42332">
        <ele>195.77</ele>
        <time>2016-04-22T09:00:34Z</time>
      </trkpt>
      <trkpt lat="47.05363" lon="5.42334">
        <ele>195.77</ele>
        <time>2016-04-22T09:00:36Z</time>
      </trkpt>
      <trkpt lat="47.05362" lon="5.42333">
        <ele>195.77</ele>
        <time>2016-04-22T09:00:37Z</time>
      </trkpt>
      <trkpt lat="47.0536" lon="5.42332">
        <ele>196.25</ele>
        <time>2016-04-22T09:00:38Z</time>
      </trkpt>
      <trkpt lat="47.05358" lon="5.4233">
        <ele>196.25</ele>
        <time>2016-04-22T09:00:39Z</time>
      </trkpt>
      <trkpt lat="47.05357" lon="5.42328">
        <ele>196.25</ele>
        <time>2016-04-22T09:00:40Z</time>
      </trkpt>
      <trkpt lat="47.05354" lon="5.42325">
        <ele>196.25</ele>
        <time>2016-04-22T09:00:41Z</time>
      </trkpt>
      <trkpt lat="47.05353" lon="5.42323">
        <ele>196.25</ele>
        <time>2016-04-22T09:00:42Z</time>
      </trkpt>
      <trkpt lat="47.05344" lon="5.42312">
        <ele>195.77</ele>
        <time>2016-04-22T09:00:47Z</time>
      </trkpt>
      <trkpt lat="47.05331" lon="5.423">
        <ele>196.25</ele>
        <time>2016-04-22T09:00:53Z</time>
      </trkpt>
      <trkpt lat="47.05319" lon="5.42279">
        <ele>195.77</ele>
        <time>2016-04-22T09:01:00Z</time>
      </trkpt>
      <trkpt lat="47.05309" lon="5.42264">
        <ele>195.77</ele>
        <time>2016-04-22T09:01:06Z</time>
      </trkpt>
      <trkpt lat="47.0531" lon="5.42261">
        <ele>195.77</ele>
        <time>2016-04-22T09:01:07Z</time>
      </trkpt>
      <trkpt lat="47.05312" lon="5.42257">
        <ele>195.77</ele>
        <time>2016-04-22T09:01:08Z</time>
      </trkpt>
      <trkpt lat="47.05314" lon="5.42255">
        <ele>196.25</ele>
        <time>2016-04-22T09:01:09Z</time>
      </trkpt>
      <trkpt lat="47.05316" lon="5.42252">
        <ele>196.25</ele>
        <time>2016-04-22T09:01:10Z</time>
      </trkpt>
      <trkpt lat="47.05326" lon="5.4224">
        <ele>194.8</ele>
        <time>2016-04-22T09:01:15Z</time>
      </trkpt>
      <trkpt lat="47.05332" lon="5.42234">
        <ele>194.32</ele>
        <time>2016-04-22T09:01:18Z</time>
      </trkpt>
      <trkpt lat="47.05334" lon="5.42233">
        <ele>194.32</ele>
        <time>2016-04-22T09:01:19Z</time>
      </trkpt>
      <trkpt lat="47.05337" lon="5.4223">
        <ele>194.32</ele>
        <time>2016-04-22T09:01:20Z</time>
      </trkpt>
      <trkpt lat="47.0534" lon="5.42228">
        <ele>194.32</ele>
        <time>2016-04-22T09:01:21Z</time>
      </trkpt>
      <trkpt lat="47.05342" lon="5.42227">
        <ele>194.32</ele>
        <time>2016-04-22T09:01:22Z</time>
      </trkpt>
      <trkpt lat="47.05345" lon="5.42225">
        <ele>194.32</ele>
        <time>2016-04-22T09:01:23Z</time>
      </trkpt>
      <trkpt lat="47.05347" lon="5.42223">
        <ele>193.84</ele>
        <time>2016-04-22T09:01:24Z</time>
      </trkpt>
      <trkpt lat="47.05352" lon="5.42218">
        <ele>193.36</ele>
        <time>2016-04-22T09:01:27Z</time>
      </trkpt>
      <trkpt lat="47.05359" lon="5.42213">
        <ele>194.32</ele>
        <time>2016-04-22T09:01:31Z</time>
      </trkpt>
      <trkpt lat="47.05362" lon="5.42212">
        <ele>194.8</ele>
        <time>2016-04-22T09:01:32Z</time>
      </trkpt>
      <trkpt lat="47.05367" lon="5.42214">
        <ele>195.28</ele>
        <time>2016-04-22T09:01:34Z</time>
      </trkpt>
      <trkpt lat="47.05369" lon="5.42217">
        <ele>195.28</ele>
        <time>2016-04-22T09:01:35Z</time>
      </trkpt>
      <trkpt lat="47.05369" lon="5.4222">
        <ele>195.28</ele>
        <time>2016-04-22T09:01:36Z</time>
      </trkpt>
      <trkpt lat="47.05371" lon="5.42231">
        <ele>194.8</ele>
        <time>2016-04-22T09:01:39Z</time>
      </trkpt>
      <trkpt lat="47.05372" lon="5.42237">
        <ele>194.32</ele>
        <time>2016-04-22T09:01:41Z</time>
      </trkpt>
      <trkpt lat="47.05372" lon="5.42242">
        <ele>194.32</ele>
        <time>2016-04-22T09:01:42Z</time>
      </trkpt>
      <trkpt lat="47.05372" lon="5.42246">
        <ele>193.84</ele>
        <time>2016-04-22T09:01:43Z</time>
      </trkpt>
      <trkpt lat="47.05371" lon="5.42249">
        <ele>193.36</ele>
        <time>2016-04-22T09:01:44Z</time>
      </trkpt>
      <trkpt lat="47.05371" lon="5.42252">
        <ele>193.36</ele>
        <time>2016-04-22T09:01:45Z</time>
      </trkpt>
      <trkpt lat="47.0537" lon="5.42255">
        <ele>192.88</ele>
        <time>2016-04-22T09:01:46Z</time>
      </trkpt>
      <trkpt lat="47.0537" lon="5.42257">
        <ele>192.88</ele>
        <time>2016-04-22T09:01:47Z</time>
      </trkpt>
      <trkpt lat="47.05369" lon="5.4226">
        <ele>192.4</ele>
        <time>2016-04-22T09:01:48Z</time>
      </trkpt>
      <trkpt lat="47.05369" lon="5.42262">
        <ele>192.4</ele>
        <time>2016-04-22T09:01:49Z</time>
      </trkpt>
      <trkpt lat="47.05367" lon="5.42274">
        <ele>191.92</ele>
        <time>2016-04-22T09:01:57Z</time>
      </trkpt>
      <trkpt lat="47.05365" lon="5.42286">
        <ele>193.36</ele>
        <time>2016-04-22T09:02:02Z</time>
      </trkpt>
      <trkpt lat="47.05365" lon="5.42299">
        <ele>193.84</ele>
        <time>2016-04-22T09:02:06Z</time>
      </trkpt>
      <trkpt lat="47.05364" lon="5.423">
        <ele>193.36</ele>
        <time>2016-04-22T09:02:07Z</time>
      </trkpt>
      <trkpt lat="47.05358" lon="5.42309">
        <ele>193.36</ele>
        <time>2016-04-22T09:02:14Z</time>
      </trkpt>
    </trkseg>
  </trk>
</gpx>